<?xml version="1.0" encoding="UTF-8" standalone="no" ?>
<gpx xmlns="http://www.topografix.com/GPX/1/1" xmlns:xsi="http://www.w3.org/2001/XMLSchema-instance" xsi:schemaLocation="http://www.topografix.com/GPX/1/1 http://www.topografix.com/GPX/1/1/gpx.xsd" version="1.1" creator="VisuGPX - https://www.visugpx.com">
  <metadata>
    <name>Nocturne Mercy le Bas 20 km</name>
    <desc><![CDATA[Nocturne 20km MLB
parties communes techniques, parties 20km seul plus simples.
Possibilité de raccourci et d'extension à partir du 2e ravitaillement.]]></desc>
  </metadata>
  <trk>
    <name><![CDATA[Nocturne Mercy le Bas 20 km_5]]></name>
    <trkseg>
      <trkpt lat="49.40417" lon="5.78749">
        <ele>309.1</ele>
        <time>2022-09-13T11:47:23.000Z</time>
      </trkpt>
      <trkpt lat="49.40415" lon="5.78747">
        <ele>318.39999389648</ele>
        <time>2022-09-13T11:47:24.000Z</time>
      </trkpt>
      <trkpt lat="49.40413" lon="5.78745">
        <ele>318.60000610352</ele>
        <time>2022-09-13T11:47:25.000Z</time>
      </trkpt>
      <trkpt lat="49.40411" lon="5.78743">
        <ele>318.79998779297</ele>
        <time>2022-09-13T11:47:26.000Z</time>
      </trkpt>
      <trkpt lat="49.40409" lon="5.78741">
        <ele>318.79998779297</ele>
        <time>2022-09-13T11:47:27.000Z</time>
      </trkpt>
      <trkpt lat="49.40406" lon="5.7874">
        <ele>318.79998779297</ele>
        <time>2022-09-13T11:47:28.000Z</time>
      </trkpt>
      <trkpt lat="49.40403" lon="5.78738">
        <ele>319</ele>
        <time>2022-09-13T11:47:29.000Z</time>
      </trkpt>
      <trkpt lat="49.40399" lon="5.78736">
        <ele>319</ele>
        <time>2022-09-13T11:47:30.000Z</time>
      </trkpt>
      <trkpt lat="49.40395" lon="5.78734">
        <ele>319</ele>
        <time>2022-09-13T11:47:31.000Z</time>
      </trkpt>
      <trkpt lat="49.4039" lon="5.78731">
        <ele>319</ele>
        <time>2022-09-13T11:47:32.000Z</time>
      </trkpt>
      <trkpt lat="49.40385" lon="5.78728">
        <ele>318.60000610352</ele>
        <time>2022-09-13T11:47:33.000Z</time>
      </trkpt>
      <trkpt lat="49.4038" lon="5.78725">
        <ele>318.79998779297</ele>
        <time>2022-09-13T11:47:34.000Z</time>
      </trkpt>
      <trkpt lat="49.40375" lon="5.78723">
        <ele>318.60000610352</ele>
        <time>2022-09-13T11:47:35.000Z</time>
      </trkpt>
      <trkpt lat="49.40369" lon="5.7872">
        <ele>318.39999389648</ele>
        <time>2022-09-13T11:47:36.000Z</time>
      </trkpt>
      <trkpt lat="49.40363" lon="5.78716">
        <ele>318.20001220703</ele>
        <time>2022-09-13T11:47:37.000Z</time>
      </trkpt>
      <trkpt lat="49.40358" lon="5.78712">
        <ele>318</ele>
        <time>2022-09-13T11:47:38.000Z</time>
      </trkpt>
      <trkpt lat="49.40354" lon="5.78708">
        <ele>317.79998779297</ele>
        <time>2022-09-13T11:47:39.000Z</time>
      </trkpt>
      <trkpt lat="49.4035" lon="5.78705">
        <ele>317.39999389648</ele>
        <time>2022-09-13T11:47:40.000Z</time>
      </trkpt>
      <trkpt lat="49.40347" lon="5.78701">
        <ele>317.39999389648</ele>
        <time>2022-09-13T11:47:41.000Z</time>
      </trkpt>
      <trkpt lat="49.40343" lon="5.78696">
        <ele>317.20001220703</ele>
        <time>2022-09-13T11:47:42.000Z</time>
      </trkpt>
      <trkpt lat="49.40339" lon="5.78693">
        <ele>316.79998779297</ele>
        <time>2022-09-13T11:47:43.000Z</time>
      </trkpt>
      <trkpt lat="49.40336" lon="5.7869">
        <ele>316.60000610352</ele>
        <time>2022-09-13T11:47:44.000Z</time>
      </trkpt>
      <trkpt lat="49.40332" lon="5.78688">
        <ele>316.20001220703</ele>
        <time>2022-09-13T11:47:45.000Z</time>
      </trkpt>
      <trkpt lat="49.40329" lon="5.78685">
        <ele>316.20001220703</ele>
        <time>2022-09-13T11:47:46.000Z</time>
      </trkpt>
      <trkpt lat="49.40326" lon="5.78681">
        <ele>316</ele>
        <time>2022-09-13T11:47:47.000Z</time>
      </trkpt>
      <trkpt lat="49.40323" lon="5.78679">
        <ele>316</ele>
        <time>2022-09-13T11:47:48.000Z</time>
      </trkpt>
      <trkpt lat="49.40321" lon="5.78676">
        <ele>315.79998779297</ele>
        <time>2022-09-13T11:47:49.000Z</time>
      </trkpt>
      <trkpt lat="49.40317" lon="5.78673">
        <ele>315.79998779297</ele>
        <time>2022-09-13T11:47:50.000Z</time>
      </trkpt>
      <trkpt lat="49.40314" lon="5.78672">
        <ele>315.79998779297</ele>
        <time>2022-09-13T11:47:51.000Z</time>
      </trkpt>
      <trkpt lat="49.4031" lon="5.78669">
        <ele>315.79998779297</ele>
        <time>2022-09-13T11:47:52.000Z</time>
      </trkpt>
      <trkpt lat="49.40307" lon="5.78666">
        <ele>315.79998779297</ele>
        <time>2022-09-13T11:47:53.000Z</time>
      </trkpt>
      <trkpt lat="49.40305" lon="5.78664">
        <ele>315.79998779297</ele>
        <time>2022-09-13T11:47:54.000Z</time>
      </trkpt>
      <trkpt lat="49.40301" lon="5.78661">
        <ele>315.79998779297</ele>
        <time>2022-09-13T11:47:55.000Z</time>
      </trkpt>
      <trkpt lat="49.40299" lon="5.78659">
        <ele>315.79998779297</ele>
        <time>2022-09-13T11:47:56.000Z</time>
      </trkpt>
      <trkpt lat="49.40294" lon="5.78654">
        <ele>315.60000610352</ele>
        <time>2022-09-13T11:47:58.000Z</time>
      </trkpt>
      <trkpt lat="49.40293" lon="5.78652">
        <ele>315.60000610352</ele>
        <time>2022-09-13T11:47:59.000Z</time>
      </trkpt>
      <trkpt lat="49.40291" lon="5.7865">
        <ele>315.60000610352</ele>
        <time>2022-09-13T11:48:00.000Z</time>
      </trkpt>
      <trkpt lat="49.40289" lon="5.78648">
        <ele>315.60000610352</ele>
        <time>2022-09-13T11:48:01.000Z</time>
      </trkpt>
      <trkpt lat="49.40286" lon="5.78646">
        <ele>315.60000610352</ele>
        <time>2022-09-13T11:48:02.000Z</time>
      </trkpt>
      <trkpt lat="49.40284" lon="5.78645">
        <ele>315.39999389648</ele>
        <time>2022-09-13T11:48:03.000Z</time>
      </trkpt>
      <trkpt lat="49.40282" lon="5.78644">
        <ele>315.39999389648</ele>
        <time>2022-09-13T11:48:04.000Z</time>
      </trkpt>
      <trkpt lat="49.40272" lon="5.78642">
        <ele>315.39999389648</ele>
        <time>2022-09-13T11:48:07.000Z</time>
      </trkpt>
      <trkpt lat="49.40263" lon="5.78639">
        <ele>315.20001220703</ele>
        <time>2022-09-13T11:48:10.000Z</time>
      </trkpt>
      <trkpt lat="49.40263" lon="5.78638">
        <ele>315.20001220703</ele>
        <time>2022-09-13T11:48:11.000Z</time>
      </trkpt>
      <trkpt lat="49.40263" lon="5.78635">
        <ele>315</ele>
        <time>2022-09-13T11:48:12.000Z</time>
      </trkpt>
      <trkpt lat="49.40263" lon="5.78632">
        <ele>315</ele>
        <time>2022-09-13T11:48:13.000Z</time>
      </trkpt>
      <trkpt lat="49.40264" lon="5.78622">
        <ele>314.79998779297</ele>
        <time>2022-09-13T11:48:16.000Z</time>
      </trkpt>
      <trkpt lat="49.40264" lon="5.78619">
        <ele>314.60000610352</ele>
        <time>2022-09-13T11:48:17.000Z</time>
      </trkpt>
      <trkpt lat="49.40264" lon="5.78616">
        <ele>314.60000610352</ele>
        <time>2022-09-13T11:48:18.000Z</time>
      </trkpt>
      <trkpt lat="49.40264" lon="5.78609">
        <ele>314.79998779297</ele>
        <time>2022-09-13T11:48:20.000Z</time>
      </trkpt>
      <trkpt lat="49.40265" lon="5.78606">
        <ele>315</ele>
        <time>2022-09-13T11:48:21.000Z</time>
      </trkpt>
      <trkpt lat="49.40266" lon="5.78604">
        <ele>315.20001220703</ele>
        <time>2022-09-13T11:48:22.000Z</time>
      </trkpt>
      <trkpt lat="49.40266" lon="5.78601">
        <ele>315.20001220703</ele>
        <time>2022-09-13T11:48:23.000Z</time>
      </trkpt>
      <trkpt lat="49.40267" lon="5.78598">
        <ele>315.20001220703</ele>
        <time>2022-09-13T11:48:24.000Z</time>
      </trkpt>
      <trkpt lat="49.40271" lon="5.78586">
        <ele>315.79998779297</ele>
        <time>2022-09-13T11:48:28.000Z</time>
      </trkpt>
      <trkpt lat="49.40272" lon="5.78584">
        <ele>315.79998779297</ele>
        <time>2022-09-13T11:48:29.000Z</time>
      </trkpt>
      <trkpt lat="49.40273" lon="5.78582">
        <ele>316</ele>
        <time>2022-09-13T11:48:30.000Z</time>
      </trkpt>
      <trkpt lat="49.40274" lon="5.7858">
        <ele>316.20001220703</ele>
        <time>2022-09-13T11:48:31.000Z</time>
      </trkpt>
      <trkpt lat="49.40275" lon="5.78578">
        <ele>316.20001220703</ele>
        <time>2022-09-13T11:48:32.000Z</time>
      </trkpt>
      <trkpt lat="49.40276" lon="5.78575">
        <ele>316.20001220703</ele>
        <time>2022-09-13T11:48:33.000Z</time>
      </trkpt>
      <trkpt lat="49.40277" lon="5.78572">
        <ele>316.20001220703</ele>
        <time>2022-09-13T11:48:34.000Z</time>
      </trkpt>
      <trkpt lat="49.40278" lon="5.78569">
        <ele>316.39999389648</ele>
        <time>2022-09-13T11:48:35.000Z</time>
      </trkpt>
      <trkpt lat="49.40277" lon="5.78565">
        <ele>316.60000610352</ele>
        <time>2022-09-13T11:48:36.000Z</time>
      </trkpt>
      <trkpt lat="49.40278" lon="5.78554">
        <ele>316.79998779297</ele>
        <time>2022-09-13T11:48:39.000Z</time>
      </trkpt>
      <trkpt lat="49.40277" lon="5.7855">
        <ele>317</ele>
        <time>2022-09-13T11:48:40.000Z</time>
      </trkpt>
      <trkpt lat="49.40276" lon="5.78545">
        <ele>317</ele>
        <time>2022-09-13T11:48:41.000Z</time>
      </trkpt>
      <trkpt lat="49.40274" lon="5.7854">
        <ele>317.39999389648</ele>
        <time>2022-09-13T11:48:42.000Z</time>
      </trkpt>
      <trkpt lat="49.40274" lon="5.78534">
        <ele>317.60000610352</ele>
        <time>2022-09-13T11:48:43.000Z</time>
      </trkpt>
      <trkpt lat="49.40274" lon="5.78529">
        <ele>317.60000610352</ele>
        <time>2022-09-13T11:48:44.000Z</time>
      </trkpt>
      <trkpt lat="49.40278" lon="5.78513">
        <ele>318</ele>
        <time>2022-09-13T11:48:48.000Z</time>
      </trkpt>
      <trkpt lat="49.40279" lon="5.78509">
        <ele>318</ele>
        <time>2022-09-13T11:48:49.000Z</time>
      </trkpt>
      <trkpt lat="49.40279" lon="5.78487">
        <ele>318.20001220703</ele>
        <time>2022-09-13T11:48:53.000Z</time>
      </trkpt>
      <trkpt lat="49.40278" lon="5.78481">
        <ele>318.39999389648</ele>
        <time>2022-09-13T11:48:54.000Z</time>
      </trkpt>
      <trkpt lat="49.40278" lon="5.78475">
        <ele>318.39999389648</ele>
        <time>2022-09-13T11:48:55.000Z</time>
      </trkpt>
      <trkpt lat="49.40277" lon="5.78468">
        <ele>318.39999389648</ele>
        <time>2022-09-13T11:48:56.000Z</time>
      </trkpt>
      <trkpt lat="49.40274" lon="5.78451">
        <ele>318.60000610352</ele>
        <time>2022-09-13T11:48:59.000Z</time>
      </trkpt>
      <trkpt lat="49.40275" lon="5.78447">
        <ele>318.60000610352</ele>
        <time>2022-09-13T11:49:00.000Z</time>
      </trkpt>
      <trkpt lat="49.40275" lon="5.78442">
        <ele>318.60000610352</ele>
        <time>2022-09-13T11:49:01.000Z</time>
      </trkpt>
      <trkpt lat="49.40274" lon="5.78437">
        <ele>318.60000610352</ele>
        <time>2022-09-13T11:49:02.000Z</time>
      </trkpt>
      <trkpt lat="49.40275" lon="5.78422">
        <ele>318.20001220703</ele>
        <time>2022-09-13T11:49:05.000Z</time>
      </trkpt>
      <trkpt lat="49.40278" lon="5.78417">
        <ele>318</ele>
        <time>2022-09-13T11:49:06.000Z</time>
      </trkpt>
      <trkpt lat="49.4028" lon="5.78414">
        <ele>317.79998779297</ele>
        <time>2022-09-13T11:49:07.000Z</time>
      </trkpt>
      <trkpt lat="49.40287" lon="5.7841">
        <ele>317.39999389648</ele>
        <time>2022-09-13T11:49:08.000Z</time>
      </trkpt>
      <trkpt lat="49.40294" lon="5.78406">
        <ele>317.20001220703</ele>
        <time>2022-09-13T11:49:09.000Z</time>
      </trkpt>
      <trkpt lat="49.40299" lon="5.78403">
        <ele>317.20001220703</ele>
        <time>2022-09-13T11:49:10.000Z</time>
      </trkpt>
      <trkpt lat="49.40305" lon="5.78399">
        <ele>317</ele>
        <time>2022-09-13T11:49:11.000Z</time>
      </trkpt>
      <trkpt lat="49.40309" lon="5.78398">
        <ele>317</ele>
        <time>2022-09-13T11:49:12.000Z</time>
      </trkpt>
      <trkpt lat="49.40312" lon="5.78397">
        <ele>316.79998779297</ele>
        <time>2022-09-13T11:49:13.000Z</time>
      </trkpt>
      <trkpt lat="49.40314" lon="5.78395">
        <ele>316.60000610352</ele>
        <time>2022-09-13T11:49:14.000Z</time>
      </trkpt>
      <trkpt lat="49.40316" lon="5.78395">
        <ele>316.20001220703</ele>
        <time>2022-09-13T11:49:15.000Z</time>
      </trkpt>
      <trkpt lat="49.40318" lon="5.78395">
        <ele>316</ele>
        <time>2022-09-13T11:49:16.000Z</time>
      </trkpt>
      <trkpt lat="49.40321" lon="5.78395">
        <ele>315.60000610352</ele>
        <time>2022-09-13T11:49:17.000Z</time>
      </trkpt>
      <trkpt lat="49.40323" lon="5.78394">
        <ele>315.60000610352</ele>
        <time>2022-09-13T11:49:18.000Z</time>
      </trkpt>
      <trkpt lat="49.40325" lon="5.78394">
        <ele>315.60000610352</ele>
        <time>2022-09-13T11:49:19.000Z</time>
      </trkpt>
      <trkpt lat="49.40327" lon="5.78393">
        <ele>315.60000610352</ele>
        <time>2022-09-13T11:49:20.000Z</time>
      </trkpt>
      <trkpt lat="49.4033" lon="5.78393">
        <ele>315.60000610352</ele>
        <time>2022-09-13T11:49:21.000Z</time>
      </trkpt>
      <trkpt lat="49.40334" lon="5.78393">
        <ele>315.60000610352</ele>
        <time>2022-09-13T11:49:22.000Z</time>
      </trkpt>
      <trkpt lat="49.40336" lon="5.78392">
        <ele>315.60000610352</ele>
        <time>2022-09-13T11:49:23.000Z</time>
      </trkpt>
      <trkpt lat="49.40339" lon="5.78391">
        <ele>315.60000610352</ele>
        <time>2022-09-13T11:49:24.000Z</time>
      </trkpt>
      <trkpt lat="49.40343" lon="5.78391">
        <ele>315.60000610352</ele>
        <time>2022-09-13T11:49:25.000Z</time>
      </trkpt>
      <trkpt lat="49.40349" lon="5.78391">
        <ele>315.79998779297</ele>
        <time>2022-09-13T11:49:26.000Z</time>
      </trkpt>
      <trkpt lat="49.40381" lon="5.78387">
        <ele>316.20001220703</ele>
        <time>2022-09-13T11:49:35.000Z</time>
      </trkpt>
      <trkpt lat="49.40386" lon="5.78385">
        <ele>316.39999389648</ele>
        <time>2022-09-13T11:49:36.000Z</time>
      </trkpt>
      <trkpt lat="49.40389" lon="5.78385">
        <ele>316.39999389648</ele>
        <time>2022-09-13T11:49:37.000Z</time>
      </trkpt>
      <trkpt lat="49.40392" lon="5.78383">
        <ele>316.79998779297</ele>
        <time>2022-09-13T11:49:38.000Z</time>
      </trkpt>
      <trkpt lat="49.40407" lon="5.78374">
        <ele>317.39999389648</ele>
        <time>2022-09-13T11:49:44.000Z</time>
      </trkpt>
      <trkpt lat="49.40415" lon="5.78369">
        <ele>317.39999389648</ele>
        <time>2022-09-13T11:49:46.000Z</time>
      </trkpt>
      <trkpt lat="49.40419" lon="5.78368">
        <ele>317.39999389648</ele>
        <time>2022-09-13T11:49:47.000Z</time>
      </trkpt>
      <trkpt lat="49.40423" lon="5.78366">
        <ele>317.39999389648</ele>
        <time>2022-09-13T11:49:48.000Z</time>
      </trkpt>
      <trkpt lat="49.40428" lon="5.78361">
        <ele>317.39999389648</ele>
        <time>2022-09-13T11:49:51.000Z</time>
      </trkpt>
      <trkpt lat="49.4043" lon="5.78358">
        <ele>317.39999389648</ele>
        <time>2022-09-13T11:49:52.000Z</time>
      </trkpt>
      <trkpt lat="49.40431" lon="5.78355">
        <ele>317.20001220703</ele>
        <time>2022-09-13T11:49:53.000Z</time>
      </trkpt>
      <trkpt lat="49.40443" lon="5.78348">
        <ele>317.20001220703</ele>
        <time>2022-09-13T11:49:55.000Z</time>
      </trkpt>
      <trkpt lat="49.40451" lon="5.78344">
        <ele>317.20001220703</ele>
        <time>2022-09-13T11:49:56.000Z</time>
      </trkpt>
      <trkpt lat="49.40456" lon="5.78341">
        <ele>317.20001220703</ele>
        <time>2022-09-13T11:49:57.000Z</time>
      </trkpt>
      <trkpt lat="49.40457" lon="5.78337">
        <ele>317.20001220703</ele>
        <time>2022-09-13T11:49:58.000Z</time>
      </trkpt>
      <trkpt lat="49.40459" lon="5.78327">
        <ele>317.20001220703</ele>
        <time>2022-09-13T11:50:00.000Z</time>
      </trkpt>
      <trkpt lat="49.40462" lon="5.78319">
        <ele>317.20001220703</ele>
        <time>2022-09-13T11:50:01.000Z</time>
      </trkpt>
      <trkpt lat="49.40467" lon="5.78313">
        <ele>317</ele>
        <time>2022-09-13T11:50:02.000Z</time>
      </trkpt>
      <trkpt lat="49.40472" lon="5.78306">
        <ele>317</ele>
        <time>2022-09-13T11:50:03.000Z</time>
      </trkpt>
      <trkpt lat="49.40478" lon="5.783">
        <ele>316.79998779297</ele>
        <time>2022-09-13T11:50:04.000Z</time>
      </trkpt>
      <trkpt lat="49.40487" lon="5.78291">
        <ele>316.79998779297</ele>
        <time>2022-09-13T11:50:06.000Z</time>
      </trkpt>
      <trkpt lat="49.40491" lon="5.78288">
        <ele>316.60000610352</ele>
        <time>2022-09-13T11:50:07.000Z</time>
      </trkpt>
      <trkpt lat="49.40493" lon="5.78286">
        <ele>316.39999389648</ele>
        <time>2022-09-13T11:50:08.000Z</time>
      </trkpt>
      <trkpt lat="49.40496" lon="5.78283">
        <ele>316.20001220703</ele>
        <time>2022-09-13T11:50:09.000Z</time>
      </trkpt>
      <trkpt lat="49.40501" lon="5.78281">
        <ele>316</ele>
        <time>2022-09-13T11:50:10.000Z</time>
      </trkpt>
      <trkpt lat="49.40504" lon="5.78278">
        <ele>316</ele>
        <time>2022-09-13T11:50:11.000Z</time>
      </trkpt>
      <trkpt lat="49.40508" lon="5.78274">
        <ele>315.79998779297</ele>
        <time>2022-09-13T11:50:13.000Z</time>
      </trkpt>
      <trkpt lat="49.4051" lon="5.78272">
        <ele>315.79998779297</ele>
        <time>2022-09-13T11:50:14.000Z</time>
      </trkpt>
      <trkpt lat="49.40513" lon="5.7827">
        <ele>315.60000610352</ele>
        <time>2022-09-13T11:50:15.000Z</time>
      </trkpt>
      <trkpt lat="49.40517" lon="5.78268">
        <ele>315.60000610352</ele>
        <time>2022-09-13T11:50:16.000Z</time>
      </trkpt>
      <trkpt lat="49.4052" lon="5.78267">
        <ele>315.60000610352</ele>
        <time>2022-09-13T11:50:17.000Z</time>
      </trkpt>
      <trkpt lat="49.40527" lon="5.78262">
        <ele>315.39999389648</ele>
        <time>2022-09-13T11:50:19.000Z</time>
      </trkpt>
      <trkpt lat="49.40554" lon="5.7825">
        <ele>315</ele>
        <time>2022-09-13T11:50:24.000Z</time>
      </trkpt>
      <trkpt lat="49.40556" lon="5.78247">
        <ele>315</ele>
        <time>2022-09-13T11:50:25.000Z</time>
      </trkpt>
      <trkpt lat="49.40559" lon="5.78245">
        <ele>314.79998779297</ele>
        <time>2022-09-13T11:50:26.000Z</time>
      </trkpt>
      <trkpt lat="49.4056" lon="5.78243">
        <ele>314.79998779297</ele>
        <time>2022-09-13T11:50:27.000Z</time>
      </trkpt>
      <trkpt lat="49.40563" lon="5.78241">
        <ele>314.60000610352</ele>
        <time>2022-09-13T11:50:28.000Z</time>
      </trkpt>
      <trkpt lat="49.40565" lon="5.78239">
        <ele>314.20001220703</ele>
        <time>2022-09-13T11:50:29.000Z</time>
      </trkpt>
      <trkpt lat="49.40572" lon="5.78222">
        <ele>314</ele>
        <time>2022-09-13T11:50:32.000Z</time>
      </trkpt>
      <trkpt lat="49.40576" lon="5.78213">
        <ele>313.60000610352</ele>
        <time>2022-09-13T11:50:33.000Z</time>
      </trkpt>
      <trkpt lat="49.4058" lon="5.78201">
        <ele>313.39999389648</ele>
        <time>2022-09-13T11:50:34.000Z</time>
      </trkpt>
      <trkpt lat="49.40583" lon="5.78192">
        <ele>313</ele>
        <time>2022-09-13T11:50:35.000Z</time>
      </trkpt>
      <trkpt lat="49.40587" lon="5.78174">
        <ele>312.20001220703</ele>
        <time>2022-09-13T11:50:37.000Z</time>
      </trkpt>
      <trkpt lat="49.40587" lon="5.7817">
        <ele>311.39999389648</ele>
        <time>2022-09-13T11:50:38.000Z</time>
      </trkpt>
      <trkpt lat="49.40583" lon="5.78167">
        <ele>310.60000610352</ele>
        <time>2022-09-13T11:50:39.000Z</time>
      </trkpt>
      <trkpt lat="49.40579" lon="5.78166">
        <ele>309</ele>
        <time>2022-09-13T11:50:40.000Z</time>
      </trkpt>
      <trkpt lat="49.40576" lon="5.78165">
        <ele>308.20001220703</ele>
        <time>2022-09-13T11:50:41.000Z</time>
      </trkpt>
      <trkpt lat="49.40571" lon="5.78165">
        <ele>307.60000610352</ele>
        <time>2022-09-13T11:50:42.000Z</time>
      </trkpt>
      <trkpt lat="49.40566" lon="5.78163">
        <ele>307.39999389648</ele>
        <time>2022-09-13T11:50:43.000Z</time>
      </trkpt>
      <trkpt lat="49.4055" lon="5.78166">
        <ele>306.39999389648</ele>
        <time>2022-09-13T11:50:47.000Z</time>
      </trkpt>
      <trkpt lat="49.40515" lon="5.78181">
        <ele>305.39999389648</ele>
        <time>2022-09-13T11:50:55.000Z</time>
      </trkpt>
      <trkpt lat="49.40492" lon="5.78189">
        <ele>304.60000610352</ele>
        <time>2022-09-13T11:50:59.000Z</time>
      </trkpt>
      <trkpt lat="49.40471" lon="5.78193">
        <ele>304.20001220703</ele>
        <time>2022-09-13T11:51:02.000Z</time>
      </trkpt>
      <trkpt lat="49.40451" lon="5.782">
        <ele>303.60000610352</ele>
        <time>2022-09-13T11:51:05.000Z</time>
      </trkpt>
      <trkpt lat="49.40446" lon="5.78203">
        <ele>303.39999389648</ele>
        <time>2022-09-13T11:51:06.000Z</time>
      </trkpt>
      <trkpt lat="49.40442" lon="5.78205">
        <ele>302.20001220703</ele>
        <time>2022-09-13T11:51:07.000Z</time>
      </trkpt>
      <trkpt lat="49.40438" lon="5.78205">
        <ele>301.39999389648</ele>
        <time>2022-09-13T11:51:08.000Z</time>
      </trkpt>
      <trkpt lat="49.40435" lon="5.78205">
        <ele>300.79998779297</ele>
        <time>2022-09-13T11:51:09.000Z</time>
      </trkpt>
      <trkpt lat="49.40432" lon="5.78202">
        <ele>300</ele>
        <time>2022-09-13T11:51:10.000Z</time>
      </trkpt>
      <trkpt lat="49.40431" lon="5.78201">
        <ele>299.79998779297</ele>
        <time>2022-09-13T11:51:11.000Z</time>
      </trkpt>
      <trkpt lat="49.40429" lon="5.78199">
        <ele>299.60000610352</ele>
        <time>2022-09-13T11:51:12.000Z</time>
      </trkpt>
      <trkpt lat="49.40427" lon="5.78198">
        <ele>299.39999389648</ele>
        <time>2022-09-13T11:51:13.000Z</time>
      </trkpt>
      <trkpt lat="49.40425" lon="5.78198">
        <ele>299.20001220703</ele>
        <time>2022-09-13T11:51:14.000Z</time>
      </trkpt>
      <trkpt lat="49.40423" lon="5.78198">
        <ele>299.20001220703</ele>
        <time>2022-09-13T11:51:15.000Z</time>
      </trkpt>
      <trkpt lat="49.40416" lon="5.78202">
        <ele>299</ele>
        <time>2022-09-13T11:51:18.000Z</time>
      </trkpt>
      <trkpt lat="49.40414" lon="5.78203">
        <ele>299</ele>
        <time>2022-09-13T11:51:19.000Z</time>
      </trkpt>
      <trkpt lat="49.40404" lon="5.78208">
        <ele>299</ele>
        <time>2022-09-13T11:51:23.000Z</time>
      </trkpt>
      <trkpt lat="49.40394" lon="5.78212">
        <ele>299</ele>
        <time>2022-09-13T11:51:27.000Z</time>
      </trkpt>
      <trkpt lat="49.40392" lon="5.78213">
        <ele>299</ele>
        <time>2022-09-13T11:51:28.000Z</time>
      </trkpt>
      <trkpt lat="49.4039" lon="5.78214">
        <ele>299</ele>
        <time>2022-09-13T11:51:29.000Z</time>
      </trkpt>
      <trkpt lat="49.40388" lon="5.78215">
        <ele>299</ele>
        <time>2022-09-13T11:51:30.000Z</time>
      </trkpt>
      <trkpt lat="49.40386" lon="5.78215">
        <ele>299</ele>
        <time>2022-09-13T11:51:31.000Z</time>
      </trkpt>
      <trkpt lat="49.40383" lon="5.78216">
        <ele>299.20001220703</ele>
        <time>2022-09-13T11:51:32.000Z</time>
      </trkpt>
      <trkpt lat="49.40381" lon="5.78217">
        <ele>299.20001220703</ele>
        <time>2022-09-13T11:51:33.000Z</time>
      </trkpt>
      <trkpt lat="49.40379" lon="5.78218">
        <ele>299.39999389648</ele>
        <time>2022-09-13T11:51:34.000Z</time>
      </trkpt>
      <trkpt lat="49.40376" lon="5.78219">
        <ele>299.60000610352</ele>
        <time>2022-09-13T11:51:35.000Z</time>
      </trkpt>
      <trkpt lat="49.40374" lon="5.7822">
        <ele>299.60000610352</ele>
        <time>2022-09-13T11:51:36.000Z</time>
      </trkpt>
      <trkpt lat="49.40353" lon="5.78225">
        <ele>299.60000610352</ele>
        <time>2022-09-13T11:51:44.000Z</time>
      </trkpt>
      <trkpt lat="49.40334" lon="5.78223">
        <ele>298.60000610352</ele>
        <time>2022-09-13T11:51:51.000Z</time>
      </trkpt>
      <trkpt lat="49.40332" lon="5.78221">
        <ele>298.60000610352</ele>
        <time>2022-09-13T11:51:52.000Z</time>
      </trkpt>
      <trkpt lat="49.40331" lon="5.78221">
        <ele>298.60000610352</ele>
        <time>2022-09-13T11:51:53.000Z</time>
      </trkpt>
      <trkpt lat="49.4033" lon="5.78219">
        <ele>298.60000610352</ele>
        <time>2022-09-13T11:51:54.000Z</time>
      </trkpt>
      <trkpt lat="49.40328" lon="5.78218">
        <ele>298.60000610352</ele>
        <time>2022-09-13T11:51:55.000Z</time>
      </trkpt>
      <trkpt lat="49.40326" lon="5.78219">
        <ele>298.60000610352</ele>
        <time>2022-09-13T11:51:56.000Z</time>
      </trkpt>
      <trkpt lat="49.40324" lon="5.7822">
        <ele>298.60000610352</ele>
        <time>2022-09-13T11:51:57.000Z</time>
      </trkpt>
      <trkpt lat="49.4032" lon="5.78224">
        <ele>298.60000610352</ele>
        <time>2022-09-13T11:51:59.000Z</time>
      </trkpt>
      <trkpt lat="49.40318" lon="5.78224">
        <ele>298.60000610352</ele>
        <time>2022-09-13T11:52:00.000Z</time>
      </trkpt>
      <trkpt lat="49.40317" lon="5.78223">
        <ele>298.60000610352</ele>
        <time>2022-09-13T11:52:01.000Z</time>
      </trkpt>
      <trkpt lat="49.40315" lon="5.78221">
        <ele>298.60000610352</ele>
        <time>2022-09-13T11:52:02.000Z</time>
      </trkpt>
      <trkpt lat="49.40313" lon="5.78219">
        <ele>298.39999389648</ele>
        <time>2022-09-13T11:52:03.000Z</time>
      </trkpt>
      <trkpt lat="49.40311" lon="5.78218">
        <ele>298.39999389648</ele>
        <time>2022-09-13T11:52:04.000Z</time>
      </trkpt>
      <trkpt lat="49.40309" lon="5.78214">
        <ele>298.20001220703</ele>
        <time>2022-09-13T11:52:06.000Z</time>
      </trkpt>
      <trkpt lat="49.40307" lon="5.78212">
        <ele>298.20001220703</ele>
        <time>2022-09-13T11:52:07.000Z</time>
      </trkpt>
      <trkpt lat="49.40294" lon="5.78214">
        <ele>298.60000610352</ele>
        <time>2022-09-13T11:52:11.000Z</time>
      </trkpt>
      <trkpt lat="49.4029" lon="5.78212">
        <ele>298.79998779297</ele>
        <time>2022-09-13T11:52:12.000Z</time>
      </trkpt>
      <trkpt lat="49.40288" lon="5.7821">
        <ele>298.79998779297</ele>
        <time>2022-09-13T11:52:13.000Z</time>
      </trkpt>
      <trkpt lat="49.40286" lon="5.78207">
        <ele>298.79998779297</ele>
        <time>2022-09-13T11:52:14.000Z</time>
      </trkpt>
      <trkpt lat="49.40271" lon="5.78197">
        <ele>299.39999389648</ele>
        <time>2022-09-13T11:52:18.000Z</time>
      </trkpt>
      <trkpt lat="49.40269" lon="5.78197">
        <ele>299.39999389648</ele>
        <time>2022-09-13T11:52:19.000Z</time>
      </trkpt>
      <trkpt lat="49.40264" lon="5.78197">
        <ele>299.20001220703</ele>
        <time>2022-09-13T11:52:21.000Z</time>
      </trkpt>
      <trkpt lat="49.40261" lon="5.78197">
        <ele>299.20001220703</ele>
        <time>2022-09-13T11:52:22.000Z</time>
      </trkpt>
      <trkpt lat="49.40254" lon="5.78191">
        <ele>299</ele>
        <time>2022-09-13T11:52:25.000Z</time>
      </trkpt>
      <trkpt lat="49.4025" lon="5.78189">
        <ele>299</ele>
        <time>2022-09-13T11:52:26.000Z</time>
      </trkpt>
      <trkpt lat="49.40245" lon="5.78187">
        <ele>299</ele>
        <time>2022-09-13T11:52:27.000Z</time>
      </trkpt>
      <trkpt lat="49.40234" lon="5.7818">
        <ele>298.60000610352</ele>
        <time>2022-09-13T11:52:30.000Z</time>
      </trkpt>
      <trkpt lat="49.4023" lon="5.78179">
        <ele>298.60000610352</ele>
        <time>2022-09-13T11:52:31.000Z</time>
      </trkpt>
      <trkpt lat="49.40228" lon="5.78178">
        <ele>298.39999389648</ele>
        <time>2022-09-13T11:52:32.000Z</time>
      </trkpt>
      <trkpt lat="49.40221" lon="5.78175">
        <ele>298.20001220703</ele>
        <time>2022-09-13T11:52:34.000Z</time>
      </trkpt>
      <trkpt lat="49.4021" lon="5.78165">
        <ele>297.60000610352</ele>
        <time>2022-09-13T11:52:39.000Z</time>
      </trkpt>
      <trkpt lat="49.40207" lon="5.78164">
        <ele>297.60000610352</ele>
        <time>2022-09-13T11:52:40.000Z</time>
      </trkpt>
      <trkpt lat="49.40198" lon="5.78159">
        <ele>297.39999389648</ele>
        <time>2022-09-13T11:52:43.000Z</time>
      </trkpt>
      <trkpt lat="49.40192" lon="5.78153">
        <ele>297.20001220703</ele>
        <time>2022-09-13T11:52:45.000Z</time>
      </trkpt>
      <trkpt lat="49.40188" lon="5.78149">
        <ele>297.20001220703</ele>
        <time>2022-09-13T11:52:46.000Z</time>
      </trkpt>
      <trkpt lat="49.40184" lon="5.78148">
        <ele>297.20001220703</ele>
        <time>2022-09-13T11:52:47.000Z</time>
      </trkpt>
      <trkpt lat="49.40171" lon="5.78142">
        <ele>297.20001220703</ele>
        <time>2022-09-13T11:52:51.000Z</time>
      </trkpt>
      <trkpt lat="49.40161" lon="5.78134">
        <ele>297.20001220703</ele>
        <time>2022-09-13T11:52:54.000Z</time>
      </trkpt>
      <trkpt lat="49.40159" lon="5.78132">
        <ele>297.20001220703</ele>
        <time>2022-09-13T11:52:55.000Z</time>
      </trkpt>
      <trkpt lat="49.40156" lon="5.78133">
        <ele>297.20001220703</ele>
        <time>2022-09-13T11:52:56.000Z</time>
      </trkpt>
      <trkpt lat="49.40154" lon="5.78135">
        <ele>297.20001220703</ele>
        <time>2022-09-13T11:52:57.000Z</time>
      </trkpt>
      <trkpt lat="49.40151" lon="5.78135">
        <ele>297.39999389648</ele>
        <time>2022-09-13T11:52:58.000Z</time>
      </trkpt>
      <trkpt lat="49.40147" lon="5.78134">
        <ele>297.39999389648</ele>
        <time>2022-09-13T11:52:59.000Z</time>
      </trkpt>
      <trkpt lat="49.4014" lon="5.78132">
        <ele>297.39999389648</ele>
        <time>2022-09-13T11:53:01.000Z</time>
      </trkpt>
      <trkpt lat="49.40135" lon="5.78131">
        <ele>297.39999389648</ele>
        <time>2022-09-13T11:53:02.000Z</time>
      </trkpt>
      <trkpt lat="49.40131" lon="5.78131">
        <ele>297.20001220703</ele>
        <time>2022-09-13T11:53:03.000Z</time>
      </trkpt>
      <trkpt lat="49.40127" lon="5.78129">
        <ele>297.20001220703</ele>
        <time>2022-09-13T11:53:04.000Z</time>
      </trkpt>
      <trkpt lat="49.40123" lon="5.78127">
        <ele>297</ele>
        <time>2022-09-13T11:53:05.000Z</time>
      </trkpt>
      <trkpt lat="49.40119" lon="5.78124">
        <ele>296.60000610352</ele>
        <time>2022-09-13T11:53:06.000Z</time>
      </trkpt>
      <trkpt lat="49.40116" lon="5.78121">
        <ele>296.39999389648</ele>
        <time>2022-09-13T11:53:07.000Z</time>
      </trkpt>
      <trkpt lat="49.40113" lon="5.78119">
        <ele>296.20001220703</ele>
        <time>2022-09-13T11:53:08.000Z</time>
      </trkpt>
      <trkpt lat="49.40111" lon="5.78117">
        <ele>296</ele>
        <time>2022-09-13T11:53:09.000Z</time>
      </trkpt>
      <trkpt lat="49.40109" lon="5.78115">
        <ele>295.79998779297</ele>
        <time>2022-09-13T11:53:10.000Z</time>
      </trkpt>
      <trkpt lat="49.40107" lon="5.78114">
        <ele>295.60000610352</ele>
        <time>2022-09-13T11:53:11.000Z</time>
      </trkpt>
      <trkpt lat="49.40105" lon="5.78111">
        <ele>295.39999389648</ele>
        <time>2022-09-13T11:53:12.000Z</time>
      </trkpt>
      <trkpt lat="49.40102" lon="5.7811">
        <ele>295.39999389648</ele>
        <time>2022-09-13T11:53:13.000Z</time>
      </trkpt>
      <trkpt lat="49.40096" lon="5.78105">
        <ele>295.20001220703</ele>
        <time>2022-09-13T11:53:15.000Z</time>
      </trkpt>
      <trkpt lat="49.40074" lon="5.78101">
        <ele>295.20001220703</ele>
        <time>2022-09-13T11:53:20.000Z</time>
      </trkpt>
      <trkpt lat="49.40067" lon="5.78102">
        <ele>295.20001220703</ele>
        <time>2022-09-13T11:53:21.000Z</time>
      </trkpt>
      <trkpt lat="49.40056" lon="5.78101">
        <ele>295</ele>
        <time>2022-09-13T11:53:23.000Z</time>
      </trkpt>
      <trkpt lat="49.40049" lon="5.781">
        <ele>294.79998779297</ele>
        <time>2022-09-13T11:53:24.000Z</time>
      </trkpt>
      <trkpt lat="49.40034" lon="5.78093">
        <ele>293.60000610352</ele>
        <time>2022-09-13T11:53:26.000Z</time>
      </trkpt>
      <trkpt lat="49.40027" lon="5.78089">
        <ele>293.39999389648</ele>
        <time>2022-09-13T11:53:27.000Z</time>
      </trkpt>
      <trkpt lat="49.40023" lon="5.78086">
        <ele>293</ele>
        <time>2022-09-13T11:53:28.000Z</time>
      </trkpt>
      <trkpt lat="49.40019" lon="5.78084">
        <ele>292.79998779297</ele>
        <time>2022-09-13T11:53:29.000Z</time>
      </trkpt>
      <trkpt lat="49.40016" lon="5.78082">
        <ele>292.60000610352</ele>
        <time>2022-09-13T11:53:30.000Z</time>
      </trkpt>
      <trkpt lat="49.40013" lon="5.7808">
        <ele>292.60000610352</ele>
        <time>2022-09-13T11:53:31.000Z</time>
      </trkpt>
      <trkpt lat="49.40011" lon="5.78079">
        <ele>292.60000610352</ele>
        <time>2022-09-13T11:53:32.000Z</time>
      </trkpt>
      <trkpt lat="49.40009" lon="5.78077">
        <ele>292.79998779297</ele>
        <time>2022-09-13T11:53:33.000Z</time>
      </trkpt>
      <trkpt lat="49.40006" lon="5.78076">
        <ele>292.79998779297</ele>
        <time>2022-09-13T11:53:34.000Z</time>
      </trkpt>
      <trkpt lat="49.40003" lon="5.78074">
        <ele>293.20001220703</ele>
        <time>2022-09-13T11:53:35.000Z</time>
      </trkpt>
      <trkpt lat="49.39988" lon="5.78067">
        <ele>294</ele>
        <time>2022-09-13T11:53:39.000Z</time>
      </trkpt>
      <trkpt lat="49.39986" lon="5.78065">
        <ele>294.20001220703</ele>
        <time>2022-09-13T11:53:40.000Z</time>
      </trkpt>
      <trkpt lat="49.39985" lon="5.78064">
        <ele>294.20001220703</ele>
        <time>2022-09-13T11:53:41.000Z</time>
      </trkpt>
      <trkpt lat="49.39982" lon="5.78063">
        <ele>294.79998779297</ele>
        <time>2022-09-13T11:53:42.000Z</time>
      </trkpt>
      <trkpt lat="49.39973" lon="5.78059">
        <ele>296</ele>
        <time>2022-09-13T11:53:45.000Z</time>
      </trkpt>
      <trkpt lat="49.39972" lon="5.78057">
        <ele>296</ele>
        <time>2022-09-13T11:53:46.000Z</time>
      </trkpt>
      <trkpt lat="49.39971" lon="5.78055">
        <ele>296.39999389648</ele>
        <time>2022-09-13T11:53:47.000Z</time>
      </trkpt>
      <trkpt lat="49.3997" lon="5.78052">
        <ele>296.39999389648</ele>
        <time>2022-09-13T11:53:48.000Z</time>
      </trkpt>
      <trkpt lat="49.39968" lon="5.78048">
        <ele>296.60000610352</ele>
        <time>2022-09-13T11:53:49.000Z</time>
      </trkpt>
      <trkpt lat="49.39966" lon="5.78044">
        <ele>296.60000610352</ele>
        <time>2022-09-13T11:53:50.000Z</time>
      </trkpt>
      <trkpt lat="49.39961" lon="5.78038">
        <ele>296.79998779297</ele>
        <time>2022-09-13T11:53:52.000Z</time>
      </trkpt>
      <trkpt lat="49.3996" lon="5.78036">
        <ele>296.79998779297</ele>
        <time>2022-09-13T11:53:53.000Z</time>
      </trkpt>
      <trkpt lat="49.39958" lon="5.78034">
        <ele>296.79998779297</ele>
        <time>2022-09-13T11:53:54.000Z</time>
      </trkpt>
      <trkpt lat="49.39957" lon="5.78033">
        <ele>296.79998779297</ele>
        <time>2022-09-13T11:53:55.000Z</time>
      </trkpt>
      <trkpt lat="49.39956" lon="5.78031">
        <ele>296.79998779297</ele>
        <time>2022-09-13T11:53:56.000Z</time>
      </trkpt>
      <trkpt lat="49.39956" lon="5.78028">
        <ele>296.79998779297</ele>
        <time>2022-09-13T11:53:57.000Z</time>
      </trkpt>
      <trkpt lat="49.39955" lon="5.78025">
        <ele>296.79998779297</ele>
        <time>2022-09-13T11:53:58.000Z</time>
      </trkpt>
      <trkpt lat="49.39955" lon="5.78021">
        <ele>296.79998779297</ele>
        <time>2022-09-13T11:53:59.000Z</time>
      </trkpt>
      <trkpt lat="49.39955" lon="5.78017">
        <ele>296.79998779297</ele>
        <time>2022-09-13T11:54:00.000Z</time>
      </trkpt>
      <trkpt lat="49.39955" lon="5.78013">
        <ele>296.79998779297</ele>
        <time>2022-09-13T11:54:01.000Z</time>
      </trkpt>
      <trkpt lat="49.39956" lon="5.78009">
        <ele>296.79998779297</ele>
        <time>2022-09-13T11:54:02.000Z</time>
      </trkpt>
      <trkpt lat="49.39957" lon="5.78001">
        <ele>296.79998779297</ele>
        <time>2022-09-13T11:54:04.000Z</time>
      </trkpt>
      <trkpt lat="49.39959" lon="5.77993">
        <ele>296.60000610352</ele>
        <time>2022-09-13T11:54:07.000Z</time>
      </trkpt>
      <trkpt lat="49.39962" lon="5.77984">
        <ele>296.60000610352</ele>
        <time>2022-09-13T11:54:10.000Z</time>
      </trkpt>
      <trkpt lat="49.39963" lon="5.77981">
        <ele>296.60000610352</ele>
        <time>2022-09-13T11:54:11.000Z</time>
      </trkpt>
      <trkpt lat="49.39963" lon="5.77978">
        <ele>296.60000610352</ele>
        <time>2022-09-13T11:54:12.000Z</time>
      </trkpt>
      <trkpt lat="49.39964" lon="5.77967">
        <ele>296.60000610352</ele>
        <time>2022-09-13T11:54:15.000Z</time>
      </trkpt>
      <trkpt lat="49.39964" lon="5.77964">
        <ele>296.60000610352</ele>
        <time>2022-09-13T11:54:16.000Z</time>
      </trkpt>
      <trkpt lat="49.39965" lon="5.77961">
        <ele>296.60000610352</ele>
        <time>2022-09-13T11:54:17.000Z</time>
      </trkpt>
      <trkpt lat="49.39966" lon="5.77958">
        <ele>296.60000610352</ele>
        <time>2022-09-13T11:54:18.000Z</time>
      </trkpt>
      <trkpt lat="49.39967" lon="5.77954">
        <ele>296.60000610352</ele>
        <time>2022-09-13T11:54:19.000Z</time>
      </trkpt>
      <trkpt lat="49.39967" lon="5.77951">
        <ele>296.60000610352</ele>
        <time>2022-09-13T11:54:20.000Z</time>
      </trkpt>
      <trkpt lat="49.39968" lon="5.77948">
        <ele>296.79998779297</ele>
        <time>2022-09-13T11:54:21.000Z</time>
      </trkpt>
      <trkpt lat="49.39967" lon="5.77944">
        <ele>296.79998779297</ele>
        <time>2022-09-13T11:54:22.000Z</time>
      </trkpt>
      <trkpt lat="49.39966" lon="5.7794">
        <ele>296.79998779297</ele>
        <time>2022-09-13T11:54:23.000Z</time>
      </trkpt>
      <trkpt lat="49.39966" lon="5.77937">
        <ele>296.79998779297</ele>
        <time>2022-09-13T11:54:24.000Z</time>
      </trkpt>
      <trkpt lat="49.39967" lon="5.77929">
        <ele>297</ele>
        <time>2022-09-13T11:54:26.000Z</time>
      </trkpt>
      <trkpt lat="49.39967" lon="5.77924">
        <ele>297</ele>
        <time>2022-09-13T11:54:27.000Z</time>
      </trkpt>
      <trkpt lat="49.39966" lon="5.7792">
        <ele>297</ele>
        <time>2022-09-13T11:54:28.000Z</time>
      </trkpt>
      <trkpt lat="49.39967" lon="5.77916">
        <ele>297.20001220703</ele>
        <time>2022-09-13T11:54:29.000Z</time>
      </trkpt>
      <trkpt lat="49.39968" lon="5.77908">
        <ele>297.20001220703</ele>
        <time>2022-09-13T11:54:31.000Z</time>
      </trkpt>
      <trkpt lat="49.3997" lon="5.77883">
        <ele>297.20001220703</ele>
        <time>2022-09-13T11:54:36.000Z</time>
      </trkpt>
      <trkpt lat="49.39972" lon="5.77855">
        <ele>296.79998779297</ele>
        <time>2022-09-13T11:54:42.000Z</time>
      </trkpt>
      <trkpt lat="49.39972" lon="5.77851">
        <ele>297</ele>
        <time>2022-09-13T11:54:43.000Z</time>
      </trkpt>
      <trkpt lat="49.39972" lon="5.77847">
        <ele>297</ele>
        <time>2022-09-13T11:54:44.000Z</time>
      </trkpt>
      <trkpt lat="49.39972" lon="5.77842">
        <ele>297.20001220703</ele>
        <time>2022-09-13T11:54:45.000Z</time>
      </trkpt>
      <trkpt lat="49.39974" lon="5.77829">
        <ele>297.20001220703</ele>
        <time>2022-09-13T11:54:48.000Z</time>
      </trkpt>
      <trkpt lat="49.39975" lon="5.77815">
        <ele>297.39999389648</ele>
        <time>2022-09-13T11:54:51.000Z</time>
      </trkpt>
      <trkpt lat="49.39975" lon="5.77812">
        <ele>297.39999389648</ele>
        <time>2022-09-13T11:54:52.000Z</time>
      </trkpt>
      <trkpt lat="49.39975" lon="5.77804">
        <ele>297.60000610352</ele>
        <time>2022-09-13T11:54:54.000Z</time>
      </trkpt>
      <trkpt lat="49.39976" lon="5.778">
        <ele>297.60000610352</ele>
        <time>2022-09-13T11:54:55.000Z</time>
      </trkpt>
      <trkpt lat="49.39976" lon="5.77796">
        <ele>297.79998779297</ele>
        <time>2022-09-13T11:54:56.000Z</time>
      </trkpt>
      <trkpt lat="49.39976" lon="5.77793">
        <ele>297.79998779297</ele>
        <time>2022-09-13T11:54:57.000Z</time>
      </trkpt>
      <trkpt lat="49.39976" lon="5.77789">
        <ele>298.20001220703</ele>
        <time>2022-09-13T11:54:58.000Z</time>
      </trkpt>
      <trkpt lat="49.39976" lon="5.77785">
        <ele>298.39999389648</ele>
        <time>2022-09-13T11:54:59.000Z</time>
      </trkpt>
      <trkpt lat="49.39976" lon="5.77782">
        <ele>298.39999389648</ele>
        <time>2022-09-13T11:55:00.000Z</time>
      </trkpt>
      <trkpt lat="49.39975" lon="5.77778">
        <ele>298.39999389648</ele>
        <time>2022-09-13T11:55:01.000Z</time>
      </trkpt>
      <trkpt lat="49.39974" lon="5.77771">
        <ele>298.79998779297</ele>
        <time>2022-09-13T11:55:03.000Z</time>
      </trkpt>
      <trkpt lat="49.39976" lon="5.77767">
        <ele>298.79998779297</ele>
        <time>2022-09-13T11:55:04.000Z</time>
      </trkpt>
      <trkpt lat="49.39977" lon="5.77764">
        <ele>299</ele>
        <time>2022-09-13T11:55:05.000Z</time>
      </trkpt>
      <trkpt lat="49.39977" lon="5.77761">
        <ele>299.20001220703</ele>
        <time>2022-09-13T11:55:06.000Z</time>
      </trkpt>
      <trkpt lat="49.39979" lon="5.77756">
        <ele>299.20001220703</ele>
        <time>2022-09-13T11:55:07.000Z</time>
      </trkpt>
      <trkpt lat="49.39979" lon="5.77753">
        <ele>299.39999389648</ele>
        <time>2022-09-13T11:55:08.000Z</time>
      </trkpt>
      <trkpt lat="49.39981" lon="5.7775">
        <ele>299.39999389648</ele>
        <time>2022-09-13T11:55:09.000Z</time>
      </trkpt>
      <trkpt lat="49.39981" lon="5.77721">
        <ele>300.39999389648</ele>
        <time>2022-09-13T11:55:16.000Z</time>
      </trkpt>
      <trkpt lat="49.39981" lon="5.77717">
        <ele>300.79998779297</ele>
        <time>2022-09-13T11:55:17.000Z</time>
      </trkpt>
      <trkpt lat="49.39981" lon="5.77714">
        <ele>300.79998779297</ele>
        <time>2022-09-13T11:55:18.000Z</time>
      </trkpt>
      <trkpt lat="49.39981" lon="5.77711">
        <ele>300.79998779297</ele>
        <time>2022-09-13T11:55:19.000Z</time>
      </trkpt>
      <trkpt lat="49.39982" lon="5.77707">
        <ele>301</ele>
        <time>2022-09-13T11:55:20.000Z</time>
      </trkpt>
      <trkpt lat="49.39983" lon="5.77704">
        <ele>301.20001220703</ele>
        <time>2022-09-13T11:55:21.000Z</time>
      </trkpt>
      <trkpt lat="49.39983" lon="5.777">
        <ele>301.20001220703</ele>
        <time>2022-09-13T11:55:22.000Z</time>
      </trkpt>
      <trkpt lat="49.39984" lon="5.77697">
        <ele>301.39999389648</ele>
        <time>2022-09-13T11:55:23.000Z</time>
      </trkpt>
      <trkpt lat="49.39985" lon="5.77692">
        <ele>301.39999389648</ele>
        <time>2022-09-13T11:55:24.000Z</time>
      </trkpt>
      <trkpt lat="49.39984" lon="5.77686">
        <ele>301.39999389648</ele>
        <time>2022-09-13T11:55:25.000Z</time>
      </trkpt>
      <trkpt lat="49.39984" lon="5.77681">
        <ele>301.60000610352</ele>
        <time>2022-09-13T11:55:26.000Z</time>
      </trkpt>
      <trkpt lat="49.39983" lon="5.77677">
        <ele>301.60000610352</ele>
        <time>2022-09-13T11:55:27.000Z</time>
      </trkpt>
      <trkpt lat="49.39983" lon="5.77673">
        <ele>301.60000610352</ele>
        <time>2022-09-13T11:55:28.000Z</time>
      </trkpt>
      <trkpt lat="49.39983" lon="5.77669">
        <ele>301.60000610352</ele>
        <time>2022-09-13T11:55:29.000Z</time>
      </trkpt>
      <trkpt lat="49.39983" lon="5.77666">
        <ele>301.79998779297</ele>
        <time>2022-09-13T11:55:30.000Z</time>
      </trkpt>
      <trkpt lat="49.39982" lon="5.77661">
        <ele>301.79998779297</ele>
        <time>2022-09-13T11:55:31.000Z</time>
      </trkpt>
      <trkpt lat="49.39982" lon="5.77655">
        <ele>301.79998779297</ele>
        <time>2022-09-13T11:55:32.000Z</time>
      </trkpt>
      <trkpt lat="49.39983" lon="5.77649">
        <ele>302</ele>
        <time>2022-09-13T11:55:33.000Z</time>
      </trkpt>
      <trkpt lat="49.39984" lon="5.77643">
        <ele>302</ele>
        <time>2022-09-13T11:55:34.000Z</time>
      </trkpt>
      <trkpt lat="49.39984" lon="5.7764">
        <ele>302.20001220703</ele>
        <time>2022-09-13T11:55:35.000Z</time>
      </trkpt>
      <trkpt lat="49.39984" lon="5.77637">
        <ele>302.20001220703</ele>
        <time>2022-09-13T11:55:36.000Z</time>
      </trkpt>
      <trkpt lat="49.39984" lon="5.77633">
        <ele>302.39999389648</ele>
        <time>2022-09-13T11:55:37.000Z</time>
      </trkpt>
      <trkpt lat="49.39983" lon="5.77629">
        <ele>302.60000610352</ele>
        <time>2022-09-13T11:55:38.000Z</time>
      </trkpt>
      <trkpt lat="49.39982" lon="5.77623">
        <ele>302.79998779297</ele>
        <time>2022-09-13T11:55:39.000Z</time>
      </trkpt>
      <trkpt lat="49.39982" lon="5.77611">
        <ele>303.20001220703</ele>
        <time>2022-09-13T11:55:42.000Z</time>
      </trkpt>
      <trkpt lat="49.39982" lon="5.77608">
        <ele>303.39999389648</ele>
        <time>2022-09-13T11:55:43.000Z</time>
      </trkpt>
      <trkpt lat="49.39982" lon="5.77606">
        <ele>303.39999389648</ele>
        <time>2022-09-13T11:55:44.000Z</time>
      </trkpt>
      <trkpt lat="49.39983" lon="5.77602">
        <ele>303.60000610352</ele>
        <time>2022-09-13T11:55:45.000Z</time>
      </trkpt>
      <trkpt lat="49.39984" lon="5.77599">
        <ele>303.60000610352</ele>
        <time>2022-09-13T11:55:46.000Z</time>
      </trkpt>
      <trkpt lat="49.39985" lon="5.77595">
        <ele>303.60000610352</ele>
        <time>2022-09-13T11:55:47.000Z</time>
      </trkpt>
      <trkpt lat="49.39986" lon="5.77593">
        <ele>303.79998779297</ele>
        <time>2022-09-13T11:55:48.000Z</time>
      </trkpt>
      <trkpt lat="49.39987" lon="5.7759">
        <ele>304</ele>
        <time>2022-09-13T11:55:49.000Z</time>
      </trkpt>
      <trkpt lat="49.39988" lon="5.77588">
        <ele>304.20001220703</ele>
        <time>2022-09-13T11:55:50.000Z</time>
      </trkpt>
      <trkpt lat="49.3999" lon="5.77587">
        <ele>304.20001220703</ele>
        <time>2022-09-13T11:55:51.000Z</time>
      </trkpt>
      <trkpt lat="49.39992" lon="5.77586">
        <ele>304.39999389648</ele>
        <time>2022-09-13T11:55:52.000Z</time>
      </trkpt>
      <trkpt lat="49.39994" lon="5.77585">
        <ele>304.39999389648</ele>
        <time>2022-09-13T11:55:53.000Z</time>
      </trkpt>
      <trkpt lat="49.39997" lon="5.77584">
        <ele>304.79998779297</ele>
        <time>2022-09-13T11:55:54.000Z</time>
      </trkpt>
      <trkpt lat="49.39999" lon="5.77584">
        <ele>305</ele>
        <time>2022-09-13T11:55:55.000Z</time>
      </trkpt>
      <trkpt lat="49.40002" lon="5.77585">
        <ele>305.39999389648</ele>
        <time>2022-09-13T11:55:56.000Z</time>
      </trkpt>
      <trkpt lat="49.40006" lon="5.77586">
        <ele>305.79998779297</ele>
        <time>2022-09-13T11:55:57.000Z</time>
      </trkpt>
      <trkpt lat="49.4001" lon="5.77587">
        <ele>306</ele>
        <time>2022-09-13T11:55:58.000Z</time>
      </trkpt>
      <trkpt lat="49.40011" lon="5.77586">
        <ele>306.39999389648</ele>
        <time>2022-09-13T11:55:59.000Z</time>
      </trkpt>
      <trkpt lat="49.40014" lon="5.77585">
        <ele>306.39999389648</ele>
        <time>2022-09-13T11:56:00.000Z</time>
      </trkpt>
      <trkpt lat="49.40016" lon="5.77584">
        <ele>306.79998779297</ele>
        <time>2022-09-13T11:56:01.000Z</time>
      </trkpt>
      <trkpt lat="49.40018" lon="5.77584">
        <ele>307</ele>
        <time>2022-09-13T11:56:02.000Z</time>
      </trkpt>
      <trkpt lat="49.40021" lon="5.77583">
        <ele>307.20001220703</ele>
        <time>2022-09-13T11:56:03.000Z</time>
      </trkpt>
      <trkpt lat="49.40022" lon="5.77582">
        <ele>307.60000610352</ele>
        <time>2022-09-13T11:56:04.000Z</time>
      </trkpt>
      <trkpt lat="49.40024" lon="5.77581">
        <ele>307.79998779297</ele>
        <time>2022-09-13T11:56:05.000Z</time>
      </trkpt>
      <trkpt lat="49.40026" lon="5.77581">
        <ele>308.20001220703</ele>
        <time>2022-09-13T11:56:06.000Z</time>
      </trkpt>
      <trkpt lat="49.4003" lon="5.77581">
        <ele>308.20001220703</ele>
        <time>2022-09-13T11:56:07.000Z</time>
      </trkpt>
      <trkpt lat="49.40031" lon="5.77581">
        <ele>308.60000610352</ele>
        <time>2022-09-13T11:56:08.000Z</time>
      </trkpt>
      <trkpt lat="49.40033" lon="5.77581">
        <ele>308.60000610352</ele>
        <time>2022-09-13T11:56:09.000Z</time>
      </trkpt>
      <trkpt lat="49.40035" lon="5.77581">
        <ele>309</ele>
        <time>2022-09-13T11:56:10.000Z</time>
      </trkpt>
      <trkpt lat="49.40038" lon="5.77581">
        <ele>309</ele>
        <time>2022-09-13T11:56:11.000Z</time>
      </trkpt>
      <trkpt lat="49.40039" lon="5.77581">
        <ele>309.39999389648</ele>
        <time>2022-09-13T11:56:12.000Z</time>
      </trkpt>
      <trkpt lat="49.40041" lon="5.77581">
        <ele>309.60000610352</ele>
        <time>2022-09-13T11:56:13.000Z</time>
      </trkpt>
      <trkpt lat="49.40045" lon="5.77581">
        <ele>309.79998779297</ele>
        <time>2022-09-13T11:56:14.000Z</time>
      </trkpt>
      <trkpt lat="49.40049" lon="5.77581">
        <ele>310</ele>
        <time>2022-09-13T11:56:15.000Z</time>
      </trkpt>
      <trkpt lat="49.40051" lon="5.7758">
        <ele>310</ele>
        <time>2022-09-13T11:56:16.000Z</time>
      </trkpt>
      <trkpt lat="49.40053" lon="5.77581">
        <ele>310.20001220703</ele>
        <time>2022-09-13T11:56:17.000Z</time>
      </trkpt>
      <trkpt lat="49.40056" lon="5.77581">
        <ele>310.39999389648</ele>
        <time>2022-09-13T11:56:18.000Z</time>
      </trkpt>
      <trkpt lat="49.40059" lon="5.77581">
        <ele>310.60000610352</ele>
        <time>2022-09-13T11:56:19.000Z</time>
      </trkpt>
      <trkpt lat="49.40063" lon="5.7758">
        <ele>310.79998779297</ele>
        <time>2022-09-13T11:56:20.000Z</time>
      </trkpt>
      <trkpt lat="49.40065" lon="5.77579">
        <ele>310.79998779297</ele>
        <time>2022-09-13T11:56:21.000Z</time>
      </trkpt>
      <trkpt lat="49.40067" lon="5.77579">
        <ele>310.79998779297</ele>
        <time>2022-09-13T11:56:22.000Z</time>
      </trkpt>
      <trkpt lat="49.40071" lon="5.77579">
        <ele>310.79998779297</ele>
        <time>2022-09-13T11:56:23.000Z</time>
      </trkpt>
      <trkpt lat="49.40075" lon="5.77578">
        <ele>310.79998779297</ele>
        <time>2022-09-13T11:56:24.000Z</time>
      </trkpt>
      <trkpt lat="49.40078" lon="5.77577">
        <ele>310.79998779297</ele>
        <time>2022-09-13T11:56:25.000Z</time>
      </trkpt>
      <trkpt lat="49.4008" lon="5.77574">
        <ele>311</ele>
        <time>2022-09-13T11:56:26.000Z</time>
      </trkpt>
      <trkpt lat="49.40081" lon="5.77573">
        <ele>311.39999389648</ele>
        <time>2022-09-13T11:56:27.000Z</time>
      </trkpt>
      <trkpt lat="49.40084" lon="5.77571">
        <ele>311.39999389648</ele>
        <time>2022-09-13T11:56:28.000Z</time>
      </trkpt>
      <trkpt lat="49.40086" lon="5.77569">
        <ele>312</ele>
        <time>2022-09-13T11:56:29.000Z</time>
      </trkpt>
      <trkpt lat="49.40089" lon="5.77568">
        <ele>312.20001220703</ele>
        <time>2022-09-13T11:56:30.000Z</time>
      </trkpt>
      <trkpt lat="49.40091" lon="5.77568">
        <ele>312.60000610352</ele>
        <time>2022-09-13T11:56:31.000Z</time>
      </trkpt>
      <trkpt lat="49.40094" lon="5.77567">
        <ele>312.79998779297</ele>
        <time>2022-09-13T11:56:32.000Z</time>
      </trkpt>
      <trkpt lat="49.40097" lon="5.77567">
        <ele>313</ele>
        <time>2022-09-13T11:56:33.000Z</time>
      </trkpt>
      <trkpt lat="49.401" lon="5.77567">
        <ele>313</ele>
        <time>2022-09-13T11:56:34.000Z</time>
      </trkpt>
      <trkpt lat="49.40103" lon="5.77567">
        <ele>313.20001220703</ele>
        <time>2022-09-13T11:56:35.000Z</time>
      </trkpt>
      <trkpt lat="49.40106" lon="5.77567">
        <ele>313.20001220703</ele>
        <time>2022-09-13T11:56:36.000Z</time>
      </trkpt>
      <trkpt lat="49.40108" lon="5.77566">
        <ele>313.20001220703</ele>
        <time>2022-09-13T11:56:37.000Z</time>
      </trkpt>
      <trkpt lat="49.40111" lon="5.77566">
        <ele>313.20001220703</ele>
        <time>2022-09-13T11:56:38.000Z</time>
      </trkpt>
      <trkpt lat="49.40114" lon="5.77566">
        <ele>313.20001220703</ele>
        <time>2022-09-13T11:56:39.000Z</time>
      </trkpt>
      <trkpt lat="49.40117" lon="5.77566">
        <ele>313.20001220703</ele>
        <time>2022-09-13T11:56:40.000Z</time>
      </trkpt>
      <trkpt lat="49.40119" lon="5.77566">
        <ele>313.79998779297</ele>
        <time>2022-09-13T11:56:41.000Z</time>
      </trkpt>
      <trkpt lat="49.40122" lon="5.77566">
        <ele>313.79998779297</ele>
        <time>2022-09-13T11:56:42.000Z</time>
      </trkpt>
      <trkpt lat="49.40125" lon="5.77566">
        <ele>314</ele>
        <time>2022-09-13T11:56:43.000Z</time>
      </trkpt>
      <trkpt lat="49.40128" lon="5.77565">
        <ele>314</ele>
        <time>2022-09-13T11:56:44.000Z</time>
      </trkpt>
      <trkpt lat="49.40132" lon="5.77565">
        <ele>314</ele>
        <time>2022-09-13T11:56:45.000Z</time>
      </trkpt>
      <trkpt lat="49.40134" lon="5.77565">
        <ele>314.20001220703</ele>
        <time>2022-09-13T11:56:46.000Z</time>
      </trkpt>
      <trkpt lat="49.40138" lon="5.77564">
        <ele>314.20001220703</ele>
        <time>2022-09-13T11:56:47.000Z</time>
      </trkpt>
      <trkpt lat="49.40141" lon="5.77564">
        <ele>314.20001220703</ele>
        <time>2022-09-13T11:56:48.000Z</time>
      </trkpt>
      <trkpt lat="49.40145" lon="5.77564">
        <ele>314.20001220703</ele>
        <time>2022-09-13T11:56:49.000Z</time>
      </trkpt>
      <trkpt lat="49.40149" lon="5.77563">
        <ele>314.20001220703</ele>
        <time>2022-09-13T11:56:50.000Z</time>
      </trkpt>
      <trkpt lat="49.40152" lon="5.77563">
        <ele>314.20001220703</ele>
        <time>2022-09-13T11:56:51.000Z</time>
      </trkpt>
      <trkpt lat="49.40155" lon="5.77563">
        <ele>314.20001220703</ele>
        <time>2022-09-13T11:56:52.000Z</time>
      </trkpt>
      <trkpt lat="49.4016" lon="5.77562">
        <ele>314.20001220703</ele>
        <time>2022-09-13T11:56:53.000Z</time>
      </trkpt>
      <trkpt lat="49.40163" lon="5.77562">
        <ele>314.39999389648</ele>
        <time>2022-09-13T11:56:54.000Z</time>
      </trkpt>
      <trkpt lat="49.40167" lon="5.77561">
        <ele>314.39999389648</ele>
        <time>2022-09-13T11:56:55.000Z</time>
      </trkpt>
      <trkpt lat="49.40169" lon="5.77561">
        <ele>314.39999389648</ele>
        <time>2022-09-13T11:56:56.000Z</time>
      </trkpt>
      <trkpt lat="49.40181" lon="5.77561">
        <ele>315.20001220703</ele>
        <time>2022-09-13T11:56:59.000Z</time>
      </trkpt>
      <trkpt lat="49.40187" lon="5.7756">
        <ele>315.60000610352</ele>
        <time>2022-09-13T11:57:01.000Z</time>
      </trkpt>
      <trkpt lat="49.40216" lon="5.77561">
        <ele>315.79998779297</ele>
        <time>2022-09-13T11:57:09.000Z</time>
      </trkpt>
      <trkpt lat="49.40229" lon="5.77566">
        <ele>316.39999389648</ele>
        <time>2022-09-13T11:57:13.000Z</time>
      </trkpt>
      <trkpt lat="49.40238" lon="5.77572">
        <ele>317</ele>
        <time>2022-09-13T11:57:16.000Z</time>
      </trkpt>
      <trkpt lat="49.40241" lon="5.77574">
        <ele>317.20001220703</ele>
        <time>2022-09-13T11:57:17.000Z</time>
      </trkpt>
      <trkpt lat="49.40244" lon="5.77576">
        <ele>317.39999389648</ele>
        <time>2022-09-13T11:57:18.000Z</time>
      </trkpt>
      <trkpt lat="49.40248" lon="5.77578">
        <ele>317.39999389648</ele>
        <time>2022-09-13T11:57:19.000Z</time>
      </trkpt>
      <trkpt lat="49.4025" lon="5.77579">
        <ele>317.79998779297</ele>
        <time>2022-09-13T11:57:20.000Z</time>
      </trkpt>
      <trkpt lat="49.40254" lon="5.77581">
        <ele>317.79998779297</ele>
        <time>2022-09-13T11:57:21.000Z</time>
      </trkpt>
      <trkpt lat="49.40257" lon="5.77584">
        <ele>317.79998779297</ele>
        <time>2022-09-13T11:57:22.000Z</time>
      </trkpt>
      <trkpt lat="49.4026" lon="5.77585">
        <ele>318</ele>
        <time>2022-09-13T11:57:23.000Z</time>
      </trkpt>
      <trkpt lat="49.40263" lon="5.77587">
        <ele>318</ele>
        <time>2022-09-13T11:57:24.000Z</time>
      </trkpt>
      <trkpt lat="49.40266" lon="5.77588">
        <ele>318.20001220703</ele>
        <time>2022-09-13T11:57:25.000Z</time>
      </trkpt>
      <trkpt lat="49.40269" lon="5.7759">
        <ele>318.39999389648</ele>
        <time>2022-09-13T11:57:26.000Z</time>
      </trkpt>
      <trkpt lat="49.40272" lon="5.77592">
        <ele>318.39999389648</ele>
        <time>2022-09-13T11:57:27.000Z</time>
      </trkpt>
      <trkpt lat="49.40276" lon="5.77594">
        <ele>318.60000610352</ele>
        <time>2022-09-13T11:57:28.000Z</time>
      </trkpt>
      <trkpt lat="49.40279" lon="5.77595">
        <ele>318.60000610352</ele>
        <time>2022-09-13T11:57:29.000Z</time>
      </trkpt>
      <trkpt lat="49.40282" lon="5.77597">
        <ele>318.79998779297</ele>
        <time>2022-09-13T11:57:30.000Z</time>
      </trkpt>
      <trkpt lat="49.40285" lon="5.77598">
        <ele>318.79998779297</ele>
        <time>2022-09-13T11:57:31.000Z</time>
      </trkpt>
      <trkpt lat="49.40288" lon="5.776">
        <ele>319</ele>
        <time>2022-09-13T11:57:32.000Z</time>
      </trkpt>
      <trkpt lat="49.40292" lon="5.77602">
        <ele>319.20001220703</ele>
        <time>2022-09-13T11:57:33.000Z</time>
      </trkpt>
      <trkpt lat="49.40296" lon="5.77604">
        <ele>319.20001220703</ele>
        <time>2022-09-13T11:57:34.000Z</time>
      </trkpt>
      <trkpt lat="49.40298" lon="5.77606">
        <ele>319.39999389648</ele>
        <time>2022-09-13T11:57:35.000Z</time>
      </trkpt>
      <trkpt lat="49.40302" lon="5.77608">
        <ele>319.60000610352</ele>
        <time>2022-09-13T11:57:36.000Z</time>
      </trkpt>
      <trkpt lat="49.40305" lon="5.77609">
        <ele>319.60000610352</ele>
        <time>2022-09-13T11:57:37.000Z</time>
      </trkpt>
      <trkpt lat="49.40309" lon="5.77612">
        <ele>319.79998779297</ele>
        <time>2022-09-13T11:57:38.000Z</time>
      </trkpt>
      <trkpt lat="49.40312" lon="5.77613">
        <ele>319.79998779297</ele>
        <time>2022-09-13T11:57:39.000Z</time>
      </trkpt>
      <trkpt lat="49.40315" lon="5.77615">
        <ele>319.79998779297</ele>
        <time>2022-09-13T11:57:40.000Z</time>
      </trkpt>
      <trkpt lat="49.40318" lon="5.77617">
        <ele>320.20001220703</ele>
        <time>2022-09-13T11:57:41.000Z</time>
      </trkpt>
      <trkpt lat="49.40322" lon="5.77619">
        <ele>320.60000610352</ele>
        <time>2022-09-13T11:57:42.000Z</time>
      </trkpt>
      <trkpt lat="49.40325" lon="5.77621">
        <ele>321</ele>
        <time>2022-09-13T11:57:43.000Z</time>
      </trkpt>
      <trkpt lat="49.40328" lon="5.77622">
        <ele>321.20001220703</ele>
        <time>2022-09-13T11:57:44.000Z</time>
      </trkpt>
      <trkpt lat="49.40331" lon="5.77624">
        <ele>321.39999389648</ele>
        <time>2022-09-13T11:57:45.000Z</time>
      </trkpt>
      <trkpt lat="49.40334" lon="5.77626">
        <ele>321.39999389648</ele>
        <time>2022-09-13T11:57:46.000Z</time>
      </trkpt>
      <trkpt lat="49.40337" lon="5.77628">
        <ele>321.60000610352</ele>
        <time>2022-09-13T11:57:47.000Z</time>
      </trkpt>
      <trkpt lat="49.40341" lon="5.7763">
        <ele>321.60000610352</ele>
        <time>2022-09-13T11:57:48.000Z</time>
      </trkpt>
      <trkpt lat="49.40343" lon="5.77631">
        <ele>321.79998779297</ele>
        <time>2022-09-13T11:57:49.000Z</time>
      </trkpt>
      <trkpt lat="49.40346" lon="5.77632">
        <ele>321.79998779297</ele>
        <time>2022-09-13T11:57:50.000Z</time>
      </trkpt>
      <trkpt lat="49.40348" lon="5.77634">
        <ele>321.79998779297</ele>
        <time>2022-09-13T11:57:51.000Z</time>
      </trkpt>
      <trkpt lat="49.40351" lon="5.77636">
        <ele>322.20001220703</ele>
        <time>2022-09-13T11:57:52.000Z</time>
      </trkpt>
      <trkpt lat="49.40354" lon="5.77638">
        <ele>322.20001220703</ele>
        <time>2022-09-13T11:57:53.000Z</time>
      </trkpt>
      <trkpt lat="49.40357" lon="5.77639">
        <ele>322.39999389648</ele>
        <time>2022-09-13T11:57:54.000Z</time>
      </trkpt>
      <trkpt lat="49.4036" lon="5.77641">
        <ele>322.79998779297</ele>
        <time>2022-09-13T11:57:55.000Z</time>
      </trkpt>
      <trkpt lat="49.40363" lon="5.77644">
        <ele>323</ele>
        <time>2022-09-13T11:57:56.000Z</time>
      </trkpt>
      <trkpt lat="49.40365" lon="5.77646">
        <ele>323.39999389648</ele>
        <time>2022-09-13T11:57:57.000Z</time>
      </trkpt>
      <trkpt lat="49.40368" lon="5.77648">
        <ele>323.60000610352</ele>
        <time>2022-09-13T11:57:58.000Z</time>
      </trkpt>
      <trkpt lat="49.40371" lon="5.77649">
        <ele>323.79998779297</ele>
        <time>2022-09-13T11:57:59.000Z</time>
      </trkpt>
      <trkpt lat="49.40374" lon="5.77651">
        <ele>324</ele>
        <time>2022-09-13T11:58:00.000Z</time>
      </trkpt>
      <trkpt lat="49.40378" lon="5.77651">
        <ele>324.39999389648</ele>
        <time>2022-09-13T11:58:01.000Z</time>
      </trkpt>
      <trkpt lat="49.40381" lon="5.77651">
        <ele>324.79998779297</ele>
        <time>2022-09-13T11:58:02.000Z</time>
      </trkpt>
      <trkpt lat="49.40384" lon="5.7765">
        <ele>325</ele>
        <time>2022-09-13T11:58:03.000Z</time>
      </trkpt>
      <trkpt lat="49.40387" lon="5.77648">
        <ele>325.20001220703</ele>
        <time>2022-09-13T11:58:04.000Z</time>
      </trkpt>
      <trkpt lat="49.4039" lon="5.77646">
        <ele>325.20001220703</ele>
        <time>2022-09-13T11:58:05.000Z</time>
      </trkpt>
      <trkpt lat="49.40394" lon="5.77642">
        <ele>325.39999389648</ele>
        <time>2022-09-13T11:58:06.000Z</time>
      </trkpt>
      <trkpt lat="49.40397" lon="5.77638">
        <ele>325.39999389648</ele>
        <time>2022-09-13T11:58:07.000Z</time>
      </trkpt>
      <trkpt lat="49.404" lon="5.77635">
        <ele>325.60000610352</ele>
        <time>2022-09-13T11:58:08.000Z</time>
      </trkpt>
      <trkpt lat="49.40402" lon="5.77632">
        <ele>325.60000610352</ele>
        <time>2022-09-13T11:58:09.000Z</time>
      </trkpt>
      <trkpt lat="49.40405" lon="5.77629">
        <ele>325.79998779297</ele>
        <time>2022-09-13T11:58:10.000Z</time>
      </trkpt>
      <trkpt lat="49.40409" lon="5.77624">
        <ele>325.79998779297</ele>
        <time>2022-09-13T11:58:11.000Z</time>
      </trkpt>
      <trkpt lat="49.40412" lon="5.7762">
        <ele>326</ele>
        <time>2022-09-13T11:58:12.000Z</time>
      </trkpt>
      <trkpt lat="49.40415" lon="5.77616">
        <ele>326</ele>
        <time>2022-09-13T11:58:13.000Z</time>
      </trkpt>
      <trkpt lat="49.40418" lon="5.77613">
        <ele>326</ele>
        <time>2022-09-13T11:58:14.000Z</time>
      </trkpt>
      <trkpt lat="49.40422" lon="5.77609">
        <ele>326.20001220703</ele>
        <time>2022-09-13T11:58:15.000Z</time>
      </trkpt>
      <trkpt lat="49.40426" lon="5.77605">
        <ele>326.20001220703</ele>
        <time>2022-09-13T11:58:16.000Z</time>
      </trkpt>
      <trkpt lat="49.40429" lon="5.77601">
        <ele>326.20001220703</ele>
        <time>2022-09-13T11:58:17.000Z</time>
      </trkpt>
      <trkpt lat="49.40433" lon="5.77597">
        <ele>326.20001220703</ele>
        <time>2022-09-13T11:58:18.000Z</time>
      </trkpt>
      <trkpt lat="49.40436" lon="5.77594">
        <ele>326.20001220703</ele>
        <time>2022-09-13T11:58:19.000Z</time>
      </trkpt>
      <trkpt lat="49.4044" lon="5.7759">
        <ele>326.20001220703</ele>
        <time>2022-09-13T11:58:20.000Z</time>
      </trkpt>
      <trkpt lat="49.40444" lon="5.77586">
        <ele>326.20001220703</ele>
        <time>2022-09-13T11:58:21.000Z</time>
      </trkpt>
      <trkpt lat="49.40448" lon="5.77582">
        <ele>326.20001220703</ele>
        <time>2022-09-13T11:58:22.000Z</time>
      </trkpt>
      <trkpt lat="49.40451" lon="5.77578">
        <ele>326.39999389648</ele>
        <time>2022-09-13T11:58:23.000Z</time>
      </trkpt>
      <trkpt lat="49.40454" lon="5.77575">
        <ele>326.60000610352</ele>
        <time>2022-09-13T11:58:24.000Z</time>
      </trkpt>
      <trkpt lat="49.40458" lon="5.77572">
        <ele>326.60000610352</ele>
        <time>2022-09-13T11:58:25.000Z</time>
      </trkpt>
      <trkpt lat="49.40462" lon="5.77567">
        <ele>326.60000610352</ele>
        <time>2022-09-13T11:58:26.000Z</time>
      </trkpt>
      <trkpt lat="49.40466" lon="5.77563">
        <ele>326.79998779297</ele>
        <time>2022-09-13T11:58:27.000Z</time>
      </trkpt>
      <trkpt lat="49.40472" lon="5.77556">
        <ele>327</ele>
        <time>2022-09-13T11:58:29.000Z</time>
      </trkpt>
      <trkpt lat="49.40486" lon="5.77541">
        <ele>327.60000610352</ele>
        <time>2022-09-13T11:58:33.000Z</time>
      </trkpt>
      <trkpt lat="49.40489" lon="5.77538">
        <ele>327.79998779297</ele>
        <time>2022-09-13T11:58:34.000Z</time>
      </trkpt>
      <trkpt lat="49.40496" lon="5.7753">
        <ele>328</ele>
        <time>2022-09-13T11:58:36.000Z</time>
      </trkpt>
      <trkpt lat="49.405" lon="5.77526">
        <ele>328.20001220703</ele>
        <time>2022-09-13T11:58:37.000Z</time>
      </trkpt>
      <trkpt lat="49.40506" lon="5.77519">
        <ele>328.39999389648</ele>
        <time>2022-09-13T11:58:39.000Z</time>
      </trkpt>
      <trkpt lat="49.40514" lon="5.77511">
        <ele>328.60000610352</ele>
        <time>2022-09-13T11:58:41.000Z</time>
      </trkpt>
      <trkpt lat="49.40518" lon="5.77507">
        <ele>328.60000610352</ele>
        <time>2022-09-13T11:58:42.000Z</time>
      </trkpt>
      <trkpt lat="49.40522" lon="5.77504">
        <ele>329</ele>
        <time>2022-09-13T11:58:43.000Z</time>
      </trkpt>
      <trkpt lat="49.40525" lon="5.77501">
        <ele>329</ele>
        <time>2022-09-13T11:58:44.000Z</time>
      </trkpt>
      <trkpt lat="49.40529" lon="5.77497">
        <ele>329.20001220703</ele>
        <time>2022-09-13T11:58:45.000Z</time>
      </trkpt>
      <trkpt lat="49.40532" lon="5.77493">
        <ele>329.39999389648</ele>
        <time>2022-09-13T11:58:46.000Z</time>
      </trkpt>
      <trkpt lat="49.40536" lon="5.77489">
        <ele>329.39999389648</ele>
        <time>2022-09-13T11:58:47.000Z</time>
      </trkpt>
      <trkpt lat="49.40539" lon="5.77486">
        <ele>329.60000610352</ele>
        <time>2022-09-13T11:58:48.000Z</time>
      </trkpt>
      <trkpt lat="49.40542" lon="5.77482">
        <ele>329.60000610352</ele>
        <time>2022-09-13T11:58:49.000Z</time>
      </trkpt>
      <trkpt lat="49.40546" lon="5.77478">
        <ele>329.79998779297</ele>
        <time>2022-09-13T11:58:50.000Z</time>
      </trkpt>
      <trkpt lat="49.4055" lon="5.77474">
        <ele>330</ele>
        <time>2022-09-13T11:58:51.000Z</time>
      </trkpt>
      <trkpt lat="49.40554" lon="5.7747">
        <ele>330.20001220703</ele>
        <time>2022-09-13T11:58:52.000Z</time>
      </trkpt>
      <trkpt lat="49.40557" lon="5.77467">
        <ele>330.39999389648</ele>
        <time>2022-09-13T11:58:53.000Z</time>
      </trkpt>
      <trkpt lat="49.4056" lon="5.77463">
        <ele>330.60000610352</ele>
        <time>2022-09-13T11:58:54.000Z</time>
      </trkpt>
      <trkpt lat="49.40565" lon="5.77459">
        <ele>330.79998779297</ele>
        <time>2022-09-13T11:58:55.000Z</time>
      </trkpt>
      <trkpt lat="49.40569" lon="5.77455">
        <ele>331</ele>
        <time>2022-09-13T11:58:56.000Z</time>
      </trkpt>
      <trkpt lat="49.40573" lon="5.77451">
        <ele>331.20001220703</ele>
        <time>2022-09-13T11:58:57.000Z</time>
      </trkpt>
      <trkpt lat="49.40576" lon="5.77448">
        <ele>331.20001220703</ele>
        <time>2022-09-13T11:58:58.000Z</time>
      </trkpt>
      <trkpt lat="49.40581" lon="5.77442">
        <ele>331.39999389648</ele>
        <time>2022-09-13T11:58:59.000Z</time>
      </trkpt>
      <trkpt lat="49.40586" lon="5.77438">
        <ele>331.39999389648</ele>
        <time>2022-09-13T11:59:00.000Z</time>
      </trkpt>
      <trkpt lat="49.4059" lon="5.77434">
        <ele>331.60000610352</ele>
        <time>2022-09-13T11:59:01.000Z</time>
      </trkpt>
      <trkpt lat="49.40594" lon="5.77431">
        <ele>331.60000610352</ele>
        <time>2022-09-13T11:59:02.000Z</time>
      </trkpt>
      <trkpt lat="49.40598" lon="5.77427">
        <ele>331.60000610352</ele>
        <time>2022-09-13T11:59:03.000Z</time>
      </trkpt>
      <trkpt lat="49.40603" lon="5.77422">
        <ele>331.79998779297</ele>
        <time>2022-09-13T11:59:04.000Z</time>
      </trkpt>
      <trkpt lat="49.40607" lon="5.77418">
        <ele>331.79998779297</ele>
        <time>2022-09-13T11:59:05.000Z</time>
      </trkpt>
      <trkpt lat="49.40612" lon="5.77413">
        <ele>331.79998779297</ele>
        <time>2022-09-13T11:59:06.000Z</time>
      </trkpt>
      <trkpt lat="49.40616" lon="5.77408">
        <ele>331.79998779297</ele>
        <time>2022-09-13T11:59:07.000Z</time>
      </trkpt>
      <trkpt lat="49.40621" lon="5.77404">
        <ele>331.79998779297</ele>
        <time>2022-09-13T11:59:08.000Z</time>
      </trkpt>
      <trkpt lat="49.40625" lon="5.77399">
        <ele>331.79998779297</ele>
        <time>2022-09-13T11:59:09.000Z</time>
      </trkpt>
      <trkpt lat="49.40629" lon="5.77395">
        <ele>331.79998779297</ele>
        <time>2022-09-13T11:59:10.000Z</time>
      </trkpt>
      <trkpt lat="49.40633" lon="5.77391">
        <ele>332</ele>
        <time>2022-09-13T11:59:11.000Z</time>
      </trkpt>
      <trkpt lat="49.40636" lon="5.77387">
        <ele>332</ele>
        <time>2022-09-13T11:59:12.000Z</time>
      </trkpt>
      <trkpt lat="49.4064" lon="5.77383">
        <ele>332</ele>
        <time>2022-09-13T11:59:13.000Z</time>
      </trkpt>
      <trkpt lat="49.40645" lon="5.77378">
        <ele>332</ele>
        <time>2022-09-13T11:59:14.000Z</time>
      </trkpt>
      <trkpt lat="49.40684" lon="5.77339">
        <ele>332.39999389648</ele>
        <time>2022-09-13T11:59:23.000Z</time>
      </trkpt>
      <trkpt lat="49.40688" lon="5.77335">
        <ele>332.39999389648</ele>
        <time>2022-09-13T11:59:24.000Z</time>
      </trkpt>
      <trkpt lat="49.40692" lon="5.7733">
        <ele>332.60000610352</ele>
        <time>2022-09-13T11:59:25.000Z</time>
      </trkpt>
      <trkpt lat="49.40709" lon="5.77313">
        <ele>332.79998779297</ele>
        <time>2022-09-13T11:59:29.000Z</time>
      </trkpt>
      <trkpt lat="49.40717" lon="5.77305">
        <ele>332.79998779297</ele>
        <time>2022-09-13T11:59:31.000Z</time>
      </trkpt>
      <trkpt lat="49.40729" lon="5.77292">
        <ele>333.20001220703</ele>
        <time>2022-09-13T11:59:34.000Z</time>
      </trkpt>
      <trkpt lat="49.40732" lon="5.77288">
        <ele>333.39999389648</ele>
        <time>2022-09-13T11:59:35.000Z</time>
      </trkpt>
      <trkpt lat="49.4074" lon="5.77281">
        <ele>333.60000610352</ele>
        <time>2022-09-13T11:59:37.000Z</time>
      </trkpt>
      <trkpt lat="49.40744" lon="5.77277">
        <ele>333.60000610352</ele>
        <time>2022-09-13T11:59:38.000Z</time>
      </trkpt>
      <trkpt lat="49.40748" lon="5.77273">
        <ele>333.79998779297</ele>
        <time>2022-09-13T11:59:39.000Z</time>
      </trkpt>
      <trkpt lat="49.40751" lon="5.7727">
        <ele>333.79998779297</ele>
        <time>2022-09-13T11:59:40.000Z</time>
      </trkpt>
      <trkpt lat="49.40754" lon="5.77267">
        <ele>334</ele>
        <time>2022-09-13T11:59:41.000Z</time>
      </trkpt>
      <trkpt lat="49.40758" lon="5.77264">
        <ele>334</ele>
        <time>2022-09-13T11:59:42.000Z</time>
      </trkpt>
      <trkpt lat="49.40761" lon="5.77259">
        <ele>334</ele>
        <time>2022-09-13T11:59:43.000Z</time>
      </trkpt>
      <trkpt lat="49.40764" lon="5.77255">
        <ele>334</ele>
        <time>2022-09-13T11:59:44.000Z</time>
      </trkpt>
      <trkpt lat="49.40767" lon="5.7725">
        <ele>334</ele>
        <time>2022-09-13T11:59:45.000Z</time>
      </trkpt>
      <trkpt lat="49.40768" lon="5.77246">
        <ele>334</ele>
        <time>2022-09-13T11:59:46.000Z</time>
      </trkpt>
      <trkpt lat="49.4077" lon="5.77241">
        <ele>334</ele>
        <time>2022-09-13T11:59:47.000Z</time>
      </trkpt>
      <trkpt lat="49.40771" lon="5.77233">
        <ele>334</ele>
        <time>2022-09-13T11:59:48.000Z</time>
      </trkpt>
      <trkpt lat="49.40771" lon="5.77227">
        <ele>334</ele>
        <time>2022-09-13T11:59:49.000Z</time>
      </trkpt>
      <trkpt lat="49.40772" lon="5.7722">
        <ele>334</ele>
        <time>2022-09-13T11:59:50.000Z</time>
      </trkpt>
      <trkpt lat="49.40772" lon="5.77215">
        <ele>334</ele>
        <time>2022-09-13T11:59:51.000Z</time>
      </trkpt>
      <trkpt lat="49.40773" lon="5.77157">
        <ele>334.39999389648</ele>
        <time>2022-09-13T11:59:59.000Z</time>
      </trkpt>
      <trkpt lat="49.40774" lon="5.77105">
        <ele>334.39999389648</ele>
        <time>2022-09-13T12:00:06.000Z</time>
      </trkpt>
      <trkpt lat="49.40775" lon="5.77083">
        <ele>334.39999389648</ele>
        <time>2022-09-13T12:00:09.000Z</time>
      </trkpt>
      <trkpt lat="49.40777" lon="5.77032">
        <ele>333.20001220703</ele>
        <time>2022-09-13T12:00:16.000Z</time>
      </trkpt>
      <trkpt lat="49.40777" lon="5.77025">
        <ele>333</ele>
        <time>2022-09-13T12:00:17.000Z</time>
      </trkpt>
      <trkpt lat="49.40777" lon="5.77018">
        <ele>332.79998779297</ele>
        <time>2022-09-13T12:00:18.000Z</time>
      </trkpt>
      <trkpt lat="49.40774" lon="5.77005">
        <ele>332.79998779297</ele>
        <time>2022-09-13T12:00:20.000Z</time>
      </trkpt>
      <trkpt lat="49.40772" lon="5.76999">
        <ele>332.79998779297</ele>
        <time>2022-09-13T12:00:21.000Z</time>
      </trkpt>
      <trkpt lat="49.40769" lon="5.76993">
        <ele>332.79998779297</ele>
        <time>2022-09-13T12:00:22.000Z</time>
      </trkpt>
      <trkpt lat="49.40765" lon="5.76987">
        <ele>332.60000610352</ele>
        <time>2022-09-13T12:00:23.000Z</time>
      </trkpt>
      <trkpt lat="49.40761" lon="5.76982">
        <ele>332.60000610352</ele>
        <time>2022-09-13T12:00:24.000Z</time>
      </trkpt>
      <trkpt lat="49.40756" lon="5.76975">
        <ele>332.60000610352</ele>
        <time>2022-09-13T12:00:25.000Z</time>
      </trkpt>
      <trkpt lat="49.40753" lon="5.76968">
        <ele>332.60000610352</ele>
        <time>2022-09-13T12:00:26.000Z</time>
      </trkpt>
      <trkpt lat="49.40751" lon="5.76961">
        <ele>332.60000610352</ele>
        <time>2022-09-13T12:00:27.000Z</time>
      </trkpt>
      <trkpt lat="49.40751" lon="5.76953">
        <ele>332.60000610352</ele>
        <time>2022-09-13T12:00:28.000Z</time>
      </trkpt>
      <trkpt lat="49.40752" lon="5.76946">
        <ele>332.39999389648</ele>
        <time>2022-09-13T12:00:29.000Z</time>
      </trkpt>
      <trkpt lat="49.40755" lon="5.76939">
        <ele>332.20001220703</ele>
        <time>2022-09-13T12:00:30.000Z</time>
      </trkpt>
      <trkpt lat="49.40759" lon="5.76934">
        <ele>332</ele>
        <time>2022-09-13T12:00:31.000Z</time>
      </trkpt>
      <trkpt lat="49.40769" lon="5.76926">
        <ele>331.20001220703</ele>
        <time>2022-09-13T12:00:33.000Z</time>
      </trkpt>
      <trkpt lat="49.40773" lon="5.76922">
        <ele>330.79998779297</ele>
        <time>2022-09-13T12:00:34.000Z</time>
      </trkpt>
      <trkpt lat="49.40777" lon="5.76919">
        <ele>330.60000610352</ele>
        <time>2022-09-13T12:00:35.000Z</time>
      </trkpt>
      <trkpt lat="49.40781" lon="5.76917">
        <ele>330.60000610352</ele>
        <time>2022-09-13T12:00:36.000Z</time>
      </trkpt>
      <trkpt lat="49.40785" lon="5.76914">
        <ele>330.39999389648</ele>
        <time>2022-09-13T12:00:37.000Z</time>
      </trkpt>
      <trkpt lat="49.40789" lon="5.76911">
        <ele>330.39999389648</ele>
        <time>2022-09-13T12:00:38.000Z</time>
      </trkpt>
      <trkpt lat="49.40793" lon="5.76908">
        <ele>330.39999389648</ele>
        <time>2022-09-13T12:00:39.000Z</time>
      </trkpt>
      <trkpt lat="49.40796" lon="5.76905">
        <ele>330.39999389648</ele>
        <time>2022-09-13T12:00:40.000Z</time>
      </trkpt>
      <trkpt lat="49.40803" lon="5.76898">
        <ele>330.39999389648</ele>
        <time>2022-09-13T12:00:42.000Z</time>
      </trkpt>
      <trkpt lat="49.40806" lon="5.76894">
        <ele>330.39999389648</ele>
        <time>2022-09-13T12:00:43.000Z</time>
      </trkpt>
      <trkpt lat="49.40809" lon="5.76891">
        <ele>330.60000610352</ele>
        <time>2022-09-13T12:00:44.000Z</time>
      </trkpt>
      <trkpt lat="49.40812" lon="5.76888">
        <ele>330.60000610352</ele>
        <time>2022-09-13T12:00:45.000Z</time>
      </trkpt>
      <trkpt lat="49.40815" lon="5.76885">
        <ele>330.60000610352</ele>
        <time>2022-09-13T12:00:46.000Z</time>
      </trkpt>
      <trkpt lat="49.40819" lon="5.76882">
        <ele>330.60000610352</ele>
        <time>2022-09-13T12:00:47.000Z</time>
      </trkpt>
      <trkpt lat="49.40838" lon="5.76858">
        <ele>330.60000610352</ele>
        <time>2022-09-13T12:00:53.000Z</time>
      </trkpt>
      <trkpt lat="49.40839" lon="5.76852">
        <ele>330.60000610352</ele>
        <time>2022-09-13T12:00:54.000Z</time>
      </trkpt>
      <trkpt lat="49.40841" lon="5.76847">
        <ele>330.39999389648</ele>
        <time>2022-09-13T12:00:55.000Z</time>
      </trkpt>
      <trkpt lat="49.40841" lon="5.7684">
        <ele>330.39999389648</ele>
        <time>2022-09-13T12:00:56.000Z</time>
      </trkpt>
      <trkpt lat="49.4084" lon="5.76834">
        <ele>330.39999389648</ele>
        <time>2022-09-13T12:00:57.000Z</time>
      </trkpt>
      <trkpt lat="49.40838" lon="5.76827">
        <ele>330.20001220703</ele>
        <time>2022-09-13T12:00:58.000Z</time>
      </trkpt>
      <trkpt lat="49.40836" lon="5.76819">
        <ele>330.20001220703</ele>
        <time>2022-09-13T12:00:59.000Z</time>
      </trkpt>
      <trkpt lat="49.40834" lon="5.76811">
        <ele>330</ele>
        <time>2022-09-13T12:01:00.000Z</time>
      </trkpt>
      <trkpt lat="49.4083" lon="5.76794">
        <ele>329.60000610352</ele>
        <time>2022-09-13T12:01:02.000Z</time>
      </trkpt>
      <trkpt lat="49.40823" lon="5.76768">
        <ele>328.39999389648</ele>
        <time>2022-09-13T12:01:05.000Z</time>
      </trkpt>
      <trkpt lat="49.40821" lon="5.76759">
        <ele>328.20001220703</ele>
        <time>2022-09-13T12:01:06.000Z</time>
      </trkpt>
      <trkpt lat="49.4082" lon="5.76739">
        <ele>327.60000610352</ele>
        <time>2022-09-13T12:01:08.000Z</time>
      </trkpt>
      <trkpt lat="49.40822" lon="5.7673">
        <ele>327.39999389648</ele>
        <time>2022-09-13T12:01:09.000Z</time>
      </trkpt>
      <trkpt lat="49.40825" lon="5.76723">
        <ele>327.20001220703</ele>
        <time>2022-09-13T12:01:10.000Z</time>
      </trkpt>
      <trkpt lat="49.40829" lon="5.76716">
        <ele>327</ele>
        <time>2022-09-13T12:01:11.000Z</time>
      </trkpt>
      <trkpt lat="49.40832" lon="5.76709">
        <ele>327</ele>
        <time>2022-09-13T12:01:12.000Z</time>
      </trkpt>
      <trkpt lat="49.40836" lon="5.76703">
        <ele>326.79998779297</ele>
        <time>2022-09-13T12:01:13.000Z</time>
      </trkpt>
      <trkpt lat="49.40839" lon="5.76698">
        <ele>326.79998779297</ele>
        <time>2022-09-13T12:01:14.000Z</time>
      </trkpt>
      <trkpt lat="49.40841" lon="5.76692">
        <ele>326.79998779297</ele>
        <time>2022-09-13T12:01:15.000Z</time>
      </trkpt>
      <trkpt lat="49.40843" lon="5.76687">
        <ele>326.79998779297</ele>
        <time>2022-09-13T12:01:16.000Z</time>
      </trkpt>
      <trkpt lat="49.40846" lon="5.76682">
        <ele>326.79998779297</ele>
        <time>2022-09-13T12:01:17.000Z</time>
      </trkpt>
      <trkpt lat="49.40848" lon="5.76676">
        <ele>327</ele>
        <time>2022-09-13T12:01:18.000Z</time>
      </trkpt>
      <trkpt lat="49.40855" lon="5.76668">
        <ele>327</ele>
        <time>2022-09-13T12:01:20.000Z</time>
      </trkpt>
      <trkpt lat="49.40858" lon="5.76665">
        <ele>327.20001220703</ele>
        <time>2022-09-13T12:01:21.000Z</time>
      </trkpt>
      <trkpt lat="49.4086" lon="5.76665">
        <ele>327.20001220703</ele>
        <time>2022-09-13T12:01:22.000Z</time>
      </trkpt>
      <trkpt lat="49.40861" lon="5.76665">
        <ele>327.20001220703</ele>
        <time>2022-09-13T12:01:23.000Z</time>
      </trkpt>
      <trkpt lat="49.40863" lon="5.76665">
        <ele>327.39999389648</ele>
        <time>2022-09-13T12:01:24.000Z</time>
      </trkpt>
      <trkpt lat="49.40865" lon="5.76664">
        <ele>327.39999389648</ele>
        <time>2022-09-13T12:01:25.000Z</time>
      </trkpt>
      <trkpt lat="49.40867" lon="5.76663">
        <ele>327.60000610352</ele>
        <time>2022-09-13T12:01:26.000Z</time>
      </trkpt>
      <trkpt lat="49.4087" lon="5.76662">
        <ele>327.60000610352</ele>
        <time>2022-09-13T12:01:27.000Z</time>
      </trkpt>
      <trkpt lat="49.40872" lon="5.76661">
        <ele>327.79998779297</ele>
        <time>2022-09-13T12:01:28.000Z</time>
      </trkpt>
      <trkpt lat="49.40877" lon="5.7666">
        <ele>328.20001220703</ele>
        <time>2022-09-13T12:01:30.000Z</time>
      </trkpt>
      <trkpt lat="49.40888" lon="5.7666">
        <ele>328.60000610352</ele>
        <time>2022-09-13T12:01:34.000Z</time>
      </trkpt>
      <trkpt lat="49.40896" lon="5.76663">
        <ele>329.20001220703</ele>
        <time>2022-09-13T12:01:37.000Z</time>
      </trkpt>
      <trkpt lat="49.40901" lon="5.76663">
        <ele>329.60000610352</ele>
        <time>2022-09-13T12:01:39.000Z</time>
      </trkpt>
      <trkpt lat="49.40915" lon="5.76663">
        <ele>330.79998779297</ele>
        <time>2022-09-13T12:01:44.000Z</time>
      </trkpt>
      <trkpt lat="49.40918" lon="5.76663">
        <ele>331</ele>
        <time>2022-09-13T12:01:45.000Z</time>
      </trkpt>
      <trkpt lat="49.40921" lon="5.76662">
        <ele>331.20001220703</ele>
        <time>2022-09-13T12:01:46.000Z</time>
      </trkpt>
      <trkpt lat="49.40923" lon="5.76661">
        <ele>331.20001220703</ele>
        <time>2022-09-13T12:01:47.000Z</time>
      </trkpt>
      <trkpt lat="49.40926" lon="5.76659">
        <ele>331.39999389648</ele>
        <time>2022-09-13T12:01:48.000Z</time>
      </trkpt>
      <trkpt lat="49.40927" lon="5.76657">
        <ele>331.39999389648</ele>
        <time>2022-09-13T12:01:49.000Z</time>
      </trkpt>
      <trkpt lat="49.40929" lon="5.76653">
        <ele>331.39999389648</ele>
        <time>2022-09-13T12:01:50.000Z</time>
      </trkpt>
      <trkpt lat="49.40929" lon="5.7665">
        <ele>331.39999389648</ele>
        <time>2022-09-13T12:01:51.000Z</time>
      </trkpt>
      <trkpt lat="49.4093" lon="5.76646">
        <ele>331.60000610352</ele>
        <time>2022-09-13T12:01:52.000Z</time>
      </trkpt>
      <trkpt lat="49.40929" lon="5.76642">
        <ele>331.79998779297</ele>
        <time>2022-09-13T12:01:53.000Z</time>
      </trkpt>
      <trkpt lat="49.40929" lon="5.76638">
        <ele>331.60000610352</ele>
        <time>2022-09-13T12:01:54.000Z</time>
      </trkpt>
      <trkpt lat="49.40929" lon="5.76632">
        <ele>331.79998779297</ele>
        <time>2022-09-13T12:01:55.000Z</time>
      </trkpt>
      <trkpt lat="49.40929" lon="5.76627">
        <ele>331.60000610352</ele>
        <time>2022-09-13T12:01:56.000Z</time>
      </trkpt>
      <trkpt lat="49.40928" lon="5.76622">
        <ele>331.39999389648</ele>
        <time>2022-09-13T12:01:57.000Z</time>
      </trkpt>
      <trkpt lat="49.40928" lon="5.76616">
        <ele>331.20001220703</ele>
        <time>2022-09-13T12:01:58.000Z</time>
      </trkpt>
      <trkpt lat="49.40928" lon="5.76612">
        <ele>331.39999389648</ele>
        <time>2022-09-13T12:01:59.000Z</time>
      </trkpt>
      <trkpt lat="49.40927" lon="5.76605">
        <ele>331</ele>
        <time>2022-09-13T12:02:00.000Z</time>
      </trkpt>
      <trkpt lat="49.40926" lon="5.76599">
        <ele>331</ele>
        <time>2022-09-13T12:02:01.000Z</time>
      </trkpt>
      <trkpt lat="49.40925" lon="5.76593">
        <ele>331</ele>
        <time>2022-09-13T12:02:02.000Z</time>
      </trkpt>
      <trkpt lat="49.40918" lon="5.76568">
        <ele>330.60000610352</ele>
        <time>2022-09-13T12:02:06.000Z</time>
      </trkpt>
      <trkpt lat="49.40915" lon="5.76556">
        <ele>330.60000610352</ele>
        <time>2022-09-13T12:02:08.000Z</time>
      </trkpt>
      <trkpt lat="49.40914" lon="5.76551">
        <ele>330.39999389648</ele>
        <time>2022-09-13T12:02:09.000Z</time>
      </trkpt>
      <trkpt lat="49.40912" lon="5.76546">
        <ele>330.39999389648</ele>
        <time>2022-09-13T12:02:10.000Z</time>
      </trkpt>
      <trkpt lat="49.40907" lon="5.76531">
        <ele>330.20001220703</ele>
        <time>2022-09-13T12:02:13.000Z</time>
      </trkpt>
      <trkpt lat="49.40905" lon="5.76526">
        <ele>330.20001220703</ele>
        <time>2022-09-13T12:02:14.000Z</time>
      </trkpt>
      <trkpt lat="49.40904" lon="5.76521">
        <ele>330.20001220703</ele>
        <time>2022-09-13T12:02:15.000Z</time>
      </trkpt>
      <trkpt lat="49.40903" lon="5.76516">
        <ele>330.20001220703</ele>
        <time>2022-09-13T12:02:16.000Z</time>
      </trkpt>
      <trkpt lat="49.40903" lon="5.76511">
        <ele>330.20001220703</ele>
        <time>2022-09-13T12:02:17.000Z</time>
      </trkpt>
      <trkpt lat="49.40904" lon="5.76507">
        <ele>330.39999389648</ele>
        <time>2022-09-13T12:02:18.000Z</time>
      </trkpt>
      <trkpt lat="49.40905" lon="5.76502">
        <ele>330.60000610352</ele>
        <time>2022-09-13T12:02:19.000Z</time>
      </trkpt>
      <trkpt lat="49.40906" lon="5.76499">
        <ele>330.60000610352</ele>
        <time>2022-09-13T12:02:20.000Z</time>
      </trkpt>
      <trkpt lat="49.40907" lon="5.76496">
        <ele>330.79998779297</ele>
        <time>2022-09-13T12:02:21.000Z</time>
      </trkpt>
      <trkpt lat="49.40909" lon="5.76492">
        <ele>331</ele>
        <time>2022-09-13T12:02:22.000Z</time>
      </trkpt>
      <trkpt lat="49.40911" lon="5.76488">
        <ele>331</ele>
        <time>2022-09-13T12:02:23.000Z</time>
      </trkpt>
      <trkpt lat="49.40913" lon="5.76484">
        <ele>331.20001220703</ele>
        <time>2022-09-13T12:02:24.000Z</time>
      </trkpt>
      <trkpt lat="49.40919" lon="5.7646">
        <ele>332</ele>
        <time>2022-09-13T12:02:29.000Z</time>
      </trkpt>
      <trkpt lat="49.4092" lon="5.7645">
        <ele>332.39999389648</ele>
        <time>2022-09-13T12:02:31.000Z</time>
      </trkpt>
      <trkpt lat="49.40924" lon="5.76416">
        <ele>333</ele>
        <time>2022-09-13T12:02:38.000Z</time>
      </trkpt>
      <trkpt lat="49.40925" lon="5.76404">
        <ele>333.39999389648</ele>
        <time>2022-09-13T12:02:40.000Z</time>
      </trkpt>
      <trkpt lat="49.40928" lon="5.76367">
        <ele>334</ele>
        <time>2022-09-13T12:02:47.000Z</time>
      </trkpt>
      <trkpt lat="49.40928" lon="5.76355">
        <ele>334.39999389648</ele>
        <time>2022-09-13T12:02:49.000Z</time>
      </trkpt>
      <trkpt lat="49.40928" lon="5.76349">
        <ele>334.39999389648</ele>
        <time>2022-09-13T12:02:50.000Z</time>
      </trkpt>
      <trkpt lat="49.40928" lon="5.76344">
        <ele>334.60000610352</ele>
        <time>2022-09-13T12:02:51.000Z</time>
      </trkpt>
      <trkpt lat="49.40928" lon="5.76339">
        <ele>334.60000610352</ele>
        <time>2022-09-13T12:02:52.000Z</time>
      </trkpt>
      <trkpt lat="49.40928" lon="5.76333">
        <ele>334.79998779297</ele>
        <time>2022-09-13T12:02:53.000Z</time>
      </trkpt>
      <trkpt lat="49.40928" lon="5.76327">
        <ele>335</ele>
        <time>2022-09-13T12:02:54.000Z</time>
      </trkpt>
      <trkpt lat="49.40928" lon="5.76322">
        <ele>335</ele>
        <time>2022-09-13T12:02:55.000Z</time>
      </trkpt>
      <trkpt lat="49.40928" lon="5.76317">
        <ele>335.20001220703</ele>
        <time>2022-09-13T12:02:56.000Z</time>
      </trkpt>
      <trkpt lat="49.40928" lon="5.76311">
        <ele>335.20001220703</ele>
        <time>2022-09-13T12:02:57.000Z</time>
      </trkpt>
      <trkpt lat="49.40928" lon="5.76305">
        <ele>335.39999389648</ele>
        <time>2022-09-13T12:02:58.000Z</time>
      </trkpt>
      <trkpt lat="49.40928" lon="5.763">
        <ele>335.39999389648</ele>
        <time>2022-09-13T12:02:59.000Z</time>
      </trkpt>
      <trkpt lat="49.40928" lon="5.76295">
        <ele>335.39999389648</ele>
        <time>2022-09-13T12:03:00.000Z</time>
      </trkpt>
      <trkpt lat="49.40928" lon="5.76291">
        <ele>335.60000610352</ele>
        <time>2022-09-13T12:03:01.000Z</time>
      </trkpt>
      <trkpt lat="49.40928" lon="5.76286">
        <ele>335.60000610352</ele>
        <time>2022-09-13T12:03:02.000Z</time>
      </trkpt>
      <trkpt lat="49.40928" lon="5.76283">
        <ele>335.79998779297</ele>
        <time>2022-09-13T12:03:03.000Z</time>
      </trkpt>
      <trkpt lat="49.40929" lon="5.76279">
        <ele>335.79998779297</ele>
        <time>2022-09-13T12:03:04.000Z</time>
      </trkpt>
      <trkpt lat="49.4093" lon="5.76275">
        <ele>335.79998779297</ele>
        <time>2022-09-13T12:03:05.000Z</time>
      </trkpt>
      <trkpt lat="49.40932" lon="5.76271">
        <ele>335.79998779297</ele>
        <time>2022-09-13T12:03:06.000Z</time>
      </trkpt>
      <trkpt lat="49.40934" lon="5.76266">
        <ele>335.79998779297</ele>
        <time>2022-09-13T12:03:07.000Z</time>
      </trkpt>
      <trkpt lat="49.40936" lon="5.76261">
        <ele>335.79998779297</ele>
        <time>2022-09-13T12:03:08.000Z</time>
      </trkpt>
      <trkpt lat="49.40939" lon="5.76257">
        <ele>336</ele>
        <time>2022-09-13T12:03:09.000Z</time>
      </trkpt>
      <trkpt lat="49.40952" lon="5.76242">
        <ele>336.20001220703</ele>
        <time>2022-09-13T12:03:14.000Z</time>
      </trkpt>
      <trkpt lat="49.40959" lon="5.76233">
        <ele>336.20001220703</ele>
        <time>2022-09-13T12:03:17.000Z</time>
      </trkpt>
      <trkpt lat="49.40962" lon="5.76229">
        <ele>336.39999389648</ele>
        <time>2022-09-13T12:03:18.000Z</time>
      </trkpt>
      <trkpt lat="49.40968" lon="5.76219">
        <ele>336.60000610352</ele>
        <time>2022-09-13T12:03:21.000Z</time>
      </trkpt>
      <trkpt lat="49.40971" lon="5.76214">
        <ele>336.60000610352</ele>
        <time>2022-09-13T12:03:22.000Z</time>
      </trkpt>
      <trkpt lat="49.40993" lon="5.76183">
        <ele>337.79998779297</ele>
        <time>2022-09-13T12:03:31.000Z</time>
      </trkpt>
      <trkpt lat="49.40996" lon="5.7618">
        <ele>337.79998779297</ele>
        <time>2022-09-13T12:03:32.000Z</time>
      </trkpt>
      <trkpt lat="49.41019" lon="5.76154">
        <ele>337.79998779297</ele>
        <time>2022-09-13T12:03:40.000Z</time>
      </trkpt>
      <trkpt lat="49.41044" lon="5.76121">
        <ele>338.20001220703</ele>
        <time>2022-09-13T12:03:48.000Z</time>
      </trkpt>
      <trkpt lat="49.41062" lon="5.76099">
        <ele>338.60000610352</ele>
        <time>2022-09-13T12:03:54.000Z</time>
      </trkpt>
      <trkpt lat="49.41078" lon="5.76078">
        <ele>339</ele>
        <time>2022-09-13T12:03:59.000Z</time>
      </trkpt>
      <trkpt lat="49.41101" lon="5.76043">
        <ele>339.20001220703</ele>
        <time>2022-09-13T12:04:07.000Z</time>
      </trkpt>
      <trkpt lat="49.41116" lon="5.76014">
        <ele>339.79998779297</ele>
        <time>2022-09-13T12:04:13.000Z</time>
      </trkpt>
      <trkpt lat="49.4112" lon="5.76001">
        <ele>340</ele>
        <time>2022-09-13T12:04:15.000Z</time>
      </trkpt>
      <trkpt lat="49.41124" lon="5.75985">
        <ele>340.20001220703</ele>
        <time>2022-09-13T12:04:18.000Z</time>
      </trkpt>
      <trkpt lat="49.41129" lon="5.75959">
        <ele>340.60000610352</ele>
        <time>2022-09-13T12:04:22.000Z</time>
      </trkpt>
      <trkpt lat="49.41134" lon="5.75925">
        <ele>341</ele>
        <time>2022-09-13T12:04:27.000Z</time>
      </trkpt>
      <trkpt lat="49.41136" lon="5.75912">
        <ele>341.39999389648</ele>
        <time>2022-09-13T12:04:29.000Z</time>
      </trkpt>
      <trkpt lat="49.41138" lon="5.75897">
        <ele>341.60000610352</ele>
        <time>2022-09-13T12:04:31.000Z</time>
      </trkpt>
      <trkpt lat="49.41143" lon="5.75863">
        <ele>341.60000610352</ele>
        <time>2022-09-13T12:04:36.000Z</time>
      </trkpt>
      <trkpt lat="49.41146" lon="5.75852">
        <ele>341.39999389648</ele>
        <time>2022-09-13T12:04:38.000Z</time>
      </trkpt>
      <trkpt lat="49.41148" lon="5.75847">
        <ele>341.39999389648</ele>
        <time>2022-09-13T12:04:39.000Z</time>
      </trkpt>
      <trkpt lat="49.41152" lon="5.75842">
        <ele>341.20001220703</ele>
        <time>2022-09-13T12:04:40.000Z</time>
      </trkpt>
      <trkpt lat="49.41156" lon="5.75838">
        <ele>341.20001220703</ele>
        <time>2022-09-13T12:04:41.000Z</time>
      </trkpt>
      <trkpt lat="49.41159" lon="5.75836">
        <ele>341.20001220703</ele>
        <time>2022-09-13T12:04:42.000Z</time>
      </trkpt>
      <trkpt lat="49.41163" lon="5.75834">
        <ele>341</ele>
        <time>2022-09-13T12:04:43.000Z</time>
      </trkpt>
      <trkpt lat="49.41168" lon="5.75832">
        <ele>341</ele>
        <time>2022-09-13T12:04:44.000Z</time>
      </trkpt>
      <trkpt lat="49.41172" lon="5.7583">
        <ele>340.79998779297</ele>
        <time>2022-09-13T12:04:45.000Z</time>
      </trkpt>
      <trkpt lat="49.41175" lon="5.75828">
        <ele>340.79998779297</ele>
        <time>2022-09-13T12:04:46.000Z</time>
      </trkpt>
      <trkpt lat="49.41178" lon="5.75826">
        <ele>340.60000610352</ele>
        <time>2022-09-13T12:04:47.000Z</time>
      </trkpt>
      <trkpt lat="49.41182" lon="5.75823">
        <ele>340.60000610352</ele>
        <time>2022-09-13T12:04:48.000Z</time>
      </trkpt>
      <trkpt lat="49.41186" lon="5.7582">
        <ele>340.60000610352</ele>
        <time>2022-09-13T12:04:49.000Z</time>
      </trkpt>
      <trkpt lat="49.4119" lon="5.75818">
        <ele>340.60000610352</ele>
        <time>2022-09-13T12:04:50.000Z</time>
      </trkpt>
      <trkpt lat="49.41194" lon="5.75816">
        <ele>340.60000610352</ele>
        <time>2022-09-13T12:04:51.000Z</time>
      </trkpt>
      <trkpt lat="49.41197" lon="5.75814">
        <ele>340.60000610352</ele>
        <time>2022-09-13T12:04:52.000Z</time>
      </trkpt>
      <trkpt lat="49.412" lon="5.75811">
        <ele>340.60000610352</ele>
        <time>2022-09-13T12:04:53.000Z</time>
      </trkpt>
      <trkpt lat="49.41216" lon="5.75801">
        <ele>340.39999389648</ele>
        <time>2022-09-13T12:04:57.000Z</time>
      </trkpt>
      <trkpt lat="49.41242" lon="5.75786">
        <ele>340.20001220703</ele>
        <time>2022-09-13T12:05:04.000Z</time>
      </trkpt>
      <trkpt lat="49.41245" lon="5.75784">
        <ele>340.20001220703</ele>
        <time>2022-09-13T12:05:05.000Z</time>
      </trkpt>
      <trkpt lat="49.41256" lon="5.75776">
        <ele>340.39999389648</ele>
        <time>2022-09-13T12:05:08.000Z</time>
      </trkpt>
      <trkpt lat="49.41259" lon="5.75774">
        <ele>340.60000610352</ele>
        <time>2022-09-13T12:05:09.000Z</time>
      </trkpt>
      <trkpt lat="49.41263" lon="5.75772">
        <ele>340.60000610352</ele>
        <time>2022-09-13T12:05:10.000Z</time>
      </trkpt>
      <trkpt lat="49.41265" lon="5.75771">
        <ele>340.79998779297</ele>
        <time>2022-09-13T12:05:11.000Z</time>
      </trkpt>
      <trkpt lat="49.4128" lon="5.75762">
        <ele>341.39999389648</ele>
        <time>2022-09-13T12:05:15.000Z</time>
      </trkpt>
      <trkpt lat="49.41286" lon="5.75758">
        <ele>341.60000610352</ele>
        <time>2022-09-13T12:05:17.000Z</time>
      </trkpt>
      <trkpt lat="49.4129" lon="5.75755">
        <ele>341.60000610352</ele>
        <time>2022-09-13T12:05:18.000Z</time>
      </trkpt>
      <trkpt lat="49.41293" lon="5.75754">
        <ele>341.60000610352</ele>
        <time>2022-09-13T12:05:19.000Z</time>
      </trkpt>
      <trkpt lat="49.41296" lon="5.75755">
        <ele>341.60000610352</ele>
        <time>2022-09-13T12:05:20.000Z</time>
      </trkpt>
      <trkpt lat="49.41297" lon="5.75757">
        <ele>341.60000610352</ele>
        <time>2022-09-13T12:05:21.000Z</time>
      </trkpt>
      <trkpt lat="49.41299" lon="5.7576">
        <ele>341.60000610352</ele>
        <time>2022-09-13T12:05:22.000Z</time>
      </trkpt>
      <trkpt lat="49.413" lon="5.7577">
        <ele>341.60000610352</ele>
        <time>2022-09-13T12:05:24.000Z</time>
      </trkpt>
      <trkpt lat="49.41301" lon="5.75775">
        <ele>341.60000610352</ele>
        <time>2022-09-13T12:05:25.000Z</time>
      </trkpt>
      <trkpt lat="49.41302" lon="5.75778">
        <ele>341.60000610352</ele>
        <time>2022-09-13T12:05:26.000Z</time>
      </trkpt>
      <trkpt lat="49.4131" lon="5.75816">
        <ele>341.60000610352</ele>
        <time>2022-09-13T12:05:34.000Z</time>
      </trkpt>
      <trkpt lat="49.4132" lon="5.75855">
        <ele>342.60000610352</ele>
        <time>2022-09-13T12:05:42.000Z</time>
      </trkpt>
      <trkpt lat="49.41321" lon="5.75859">
        <ele>342.79998779297</ele>
        <time>2022-09-13T12:05:43.000Z</time>
      </trkpt>
      <trkpt lat="49.41323" lon="5.7587">
        <ele>342.79998779297</ele>
        <time>2022-09-13T12:05:46.000Z</time>
      </trkpt>
      <trkpt lat="49.41324" lon="5.75873">
        <ele>343</ele>
        <time>2022-09-13T12:05:47.000Z</time>
      </trkpt>
      <trkpt lat="49.41324" lon="5.75876">
        <ele>343.20001220703</ele>
        <time>2022-09-13T12:05:48.000Z</time>
      </trkpt>
      <trkpt lat="49.41325" lon="5.7588">
        <ele>343.20001220703</ele>
        <time>2022-09-13T12:05:49.000Z</time>
      </trkpt>
      <trkpt lat="49.41326" lon="5.75883">
        <ele>343.20001220703</ele>
        <time>2022-09-13T12:05:50.000Z</time>
      </trkpt>
      <trkpt lat="49.41327" lon="5.75888">
        <ele>343.20001220703</ele>
        <time>2022-09-13T12:05:52.000Z</time>
      </trkpt>
      <trkpt lat="49.41328" lon="5.75891">
        <ele>343.20001220703</ele>
        <time>2022-09-13T12:05:53.000Z</time>
      </trkpt>
      <trkpt lat="49.41329" lon="5.75893">
        <ele>343.39999389648</ele>
        <time>2022-09-13T12:05:54.000Z</time>
      </trkpt>
      <trkpt lat="49.41329" lon="5.75895">
        <ele>343.39999389648</ele>
        <time>2022-09-13T12:05:55.000Z</time>
      </trkpt>
      <trkpt lat="49.41331" lon="5.75896">
        <ele>343.39999389648</ele>
        <time>2022-09-13T12:05:56.000Z</time>
      </trkpt>
      <trkpt lat="49.41333" lon="5.75895">
        <ele>343.39999389648</ele>
        <time>2022-09-13T12:05:57.000Z</time>
      </trkpt>
      <trkpt lat="49.41336" lon="5.75894">
        <ele>343.39999389648</ele>
        <time>2022-09-13T12:05:58.000Z</time>
      </trkpt>
      <trkpt lat="49.41346" lon="5.75891">
        <ele>343.39999389648</ele>
        <time>2022-09-13T12:06:02.000Z</time>
      </trkpt>
      <trkpt lat="49.41349" lon="5.75891">
        <ele>343.39999389648</ele>
        <time>2022-09-13T12:06:03.000Z</time>
      </trkpt>
      <trkpt lat="49.41351" lon="5.75892">
        <ele>343.39999389648</ele>
        <time>2022-09-13T12:06:04.000Z</time>
      </trkpt>
      <trkpt lat="49.41355" lon="5.75893">
        <ele>343.39999389648</ele>
        <time>2022-09-13T12:06:05.000Z</time>
      </trkpt>
      <trkpt lat="49.41367" lon="5.75897">
        <ele>343.20001220703</ele>
        <time>2022-09-13T12:06:09.000Z</time>
      </trkpt>
      <trkpt lat="49.4137" lon="5.75897">
        <ele>343.20001220703</ele>
        <time>2022-09-13T12:06:10.000Z</time>
      </trkpt>
      <trkpt lat="49.41377" lon="5.75898">
        <ele>343.39999389648</ele>
        <time>2022-09-13T12:06:12.000Z</time>
      </trkpt>
      <trkpt lat="49.4138" lon="5.75898">
        <ele>343.39999389648</ele>
        <time>2022-09-13T12:06:13.000Z</time>
      </trkpt>
      <trkpt lat="49.41383" lon="5.75898">
        <ele>343.39999389648</ele>
        <time>2022-09-13T12:06:14.000Z</time>
      </trkpt>
      <trkpt lat="49.41386" lon="5.75901">
        <ele>343.39999389648</ele>
        <time>2022-09-13T12:06:15.000Z</time>
      </trkpt>
      <trkpt lat="49.41392" lon="5.759">
        <ele>343.60000610352</ele>
        <time>2022-09-13T12:06:16.000Z</time>
      </trkpt>
      <trkpt lat="49.41398" lon="5.75899">
        <ele>343.60000610352</ele>
        <time>2022-09-13T12:06:17.000Z</time>
      </trkpt>
      <trkpt lat="49.41405" lon="5.75898">
        <ele>343.79998779297</ele>
        <time>2022-09-13T12:06:18.000Z</time>
      </trkpt>
      <trkpt lat="49.4141" lon="5.75897">
        <ele>343.79998779297</ele>
        <time>2022-09-13T12:06:19.000Z</time>
      </trkpt>
      <trkpt lat="49.41414" lon="5.75897">
        <ele>343.79998779297</ele>
        <time>2022-09-13T12:06:20.000Z</time>
      </trkpt>
      <trkpt lat="49.41422" lon="5.75898">
        <ele>344</ele>
        <time>2022-09-13T12:06:22.000Z</time>
      </trkpt>
      <trkpt lat="49.41438" lon="5.75903">
        <ele>344.20001220703</ele>
        <time>2022-09-13T12:06:26.000Z</time>
      </trkpt>
      <trkpt lat="49.41442" lon="5.75903">
        <ele>344.20001220703</ele>
        <time>2022-09-13T12:06:27.000Z</time>
      </trkpt>
      <trkpt lat="49.41444" lon="5.75902">
        <ele>344.20001220703</ele>
        <time>2022-09-13T12:06:28.000Z</time>
      </trkpt>
      <trkpt lat="49.41447" lon="5.75901">
        <ele>344.20001220703</ele>
        <time>2022-09-13T12:06:29.000Z</time>
      </trkpt>
      <trkpt lat="49.41451" lon="5.759">
        <ele>344.20001220703</ele>
        <time>2022-09-13T12:06:30.000Z</time>
      </trkpt>
      <trkpt lat="49.41468" lon="5.759">
        <ele>344.20001220703</ele>
        <time>2022-09-13T12:06:34.000Z</time>
      </trkpt>
      <trkpt lat="49.41473" lon="5.75899">
        <ele>344.20001220703</ele>
        <time>2022-09-13T12:06:35.000Z</time>
      </trkpt>
      <trkpt lat="49.41479" lon="5.759">
        <ele>344.20001220703</ele>
        <time>2022-09-13T12:06:36.000Z</time>
      </trkpt>
      <trkpt lat="49.41498" lon="5.75894">
        <ele>344.60000610352</ele>
        <time>2022-09-13T12:06:41.000Z</time>
      </trkpt>
      <trkpt lat="49.415" lon="5.75894">
        <ele>344.79998779297</ele>
        <time>2022-09-13T12:06:42.000Z</time>
      </trkpt>
      <trkpt lat="49.41503" lon="5.75893">
        <ele>344.79998779297</ele>
        <time>2022-09-13T12:06:43.000Z</time>
      </trkpt>
      <trkpt lat="49.41513" lon="5.75891">
        <ele>345.20001220703</ele>
        <time>2022-09-13T12:06:46.000Z</time>
      </trkpt>
      <trkpt lat="49.41525" lon="5.75885">
        <ele>346</ele>
        <time>2022-09-13T12:06:50.000Z</time>
      </trkpt>
      <trkpt lat="49.41532" lon="5.75882">
        <ele>346.39999389648</ele>
        <time>2022-09-13T12:06:52.000Z</time>
      </trkpt>
      <trkpt lat="49.41542" lon="5.7588">
        <ele>347.39999389648</ele>
        <time>2022-09-13T12:06:55.000Z</time>
      </trkpt>
      <trkpt lat="49.41544" lon="5.75878">
        <ele>347.60000610352</ele>
        <time>2022-09-13T12:06:56.000Z</time>
      </trkpt>
      <trkpt lat="49.41547" lon="5.75874">
        <ele>348.20001220703</ele>
        <time>2022-09-13T12:06:57.000Z</time>
      </trkpt>
      <trkpt lat="49.41549" lon="5.75871">
        <ele>348.79998779297</ele>
        <time>2022-09-13T12:06:58.000Z</time>
      </trkpt>
      <trkpt lat="49.4155" lon="5.75868">
        <ele>349</ele>
        <time>2022-09-13T12:06:59.000Z</time>
      </trkpt>
      <trkpt lat="49.41552" lon="5.75867">
        <ele>349.20001220703</ele>
        <time>2022-09-13T12:07:00.000Z</time>
      </trkpt>
      <trkpt lat="49.41554" lon="5.75865">
        <ele>349.39999389648</ele>
        <time>2022-09-13T12:07:01.000Z</time>
      </trkpt>
      <trkpt lat="49.41556" lon="5.75863">
        <ele>349.60000610352</ele>
        <time>2022-09-13T12:07:02.000Z</time>
      </trkpt>
      <trkpt lat="49.4156" lon="5.75861">
        <ele>349.79998779297</ele>
        <time>2022-09-13T12:07:03.000Z</time>
      </trkpt>
      <trkpt lat="49.41562" lon="5.75857">
        <ele>350.20001220703</ele>
        <time>2022-09-13T12:07:04.000Z</time>
      </trkpt>
      <trkpt lat="49.41569" lon="5.75854">
        <ele>350.39999389648</ele>
        <time>2022-09-13T12:07:05.000Z</time>
      </trkpt>
      <trkpt lat="49.41572" lon="5.75851">
        <ele>350.79998779297</ele>
        <time>2022-09-13T12:07:06.000Z</time>
      </trkpt>
      <trkpt lat="49.41574" lon="5.75848">
        <ele>351.39999389648</ele>
        <time>2022-09-13T12:07:07.000Z</time>
      </trkpt>
      <trkpt lat="49.4158" lon="5.75844">
        <ele>351.39999389648</ele>
        <time>2022-09-13T12:07:08.000Z</time>
      </trkpt>
      <trkpt lat="49.41583" lon="5.7584">
        <ele>351.60000610352</ele>
        <time>2022-09-13T12:07:09.000Z</time>
      </trkpt>
      <trkpt lat="49.41585" lon="5.75836">
        <ele>351.60000610352</ele>
        <time>2022-09-13T12:07:10.000Z</time>
      </trkpt>
      <trkpt lat="49.41589" lon="5.75832">
        <ele>352</ele>
        <time>2022-09-13T12:07:11.000Z</time>
      </trkpt>
      <trkpt lat="49.4159" lon="5.75829">
        <ele>352</ele>
        <time>2022-09-13T12:07:12.000Z</time>
      </trkpt>
      <trkpt lat="49.41593" lon="5.75826">
        <ele>352.39999389648</ele>
        <time>2022-09-13T12:07:13.000Z</time>
      </trkpt>
      <trkpt lat="49.41597" lon="5.75824">
        <ele>352.60000610352</ele>
        <time>2022-09-13T12:07:14.000Z</time>
      </trkpt>
      <trkpt lat="49.41601" lon="5.75821">
        <ele>352.79998779297</ele>
        <time>2022-09-13T12:07:15.000Z</time>
      </trkpt>
      <trkpt lat="49.41604" lon="5.7582">
        <ele>353.20001220703</ele>
        <time>2022-09-13T12:07:16.000Z</time>
      </trkpt>
      <trkpt lat="49.41606" lon="5.75819">
        <ele>353.39999389648</ele>
        <time>2022-09-13T12:07:17.000Z</time>
      </trkpt>
      <trkpt lat="49.41607" lon="5.75818">
        <ele>353.60000610352</ele>
        <time>2022-09-13T12:07:18.000Z</time>
      </trkpt>
      <trkpt lat="49.41611" lon="5.75814">
        <ele>353.79998779297</ele>
        <time>2022-09-13T12:07:19.000Z</time>
      </trkpt>
      <trkpt lat="49.41615" lon="5.75811">
        <ele>354</ele>
        <time>2022-09-13T12:07:20.000Z</time>
      </trkpt>
      <trkpt lat="49.41618" lon="5.75806">
        <ele>354.39999389648</ele>
        <time>2022-09-13T12:07:21.000Z</time>
      </trkpt>
      <trkpt lat="49.41622" lon="5.75802">
        <ele>354.60000610352</ele>
        <time>2022-09-13T12:07:22.000Z</time>
      </trkpt>
      <trkpt lat="49.41625" lon="5.75798">
        <ele>354.79998779297</ele>
        <time>2022-09-13T12:07:23.000Z</time>
      </trkpt>
      <trkpt lat="49.41628" lon="5.75794">
        <ele>354.79998779297</ele>
        <time>2022-09-13T12:07:24.000Z</time>
      </trkpt>
      <trkpt lat="49.4163" lon="5.75791">
        <ele>355.20001220703</ele>
        <time>2022-09-13T12:07:25.000Z</time>
      </trkpt>
      <trkpt lat="49.41633" lon="5.75789">
        <ele>355.39999389648</ele>
        <time>2022-09-13T12:07:26.000Z</time>
      </trkpt>
      <trkpt lat="49.41634" lon="5.75787">
        <ele>355.39999389648</ele>
        <time>2022-09-13T12:07:27.000Z</time>
      </trkpt>
      <trkpt lat="49.41637" lon="5.75783">
        <ele>355.60000610352</ele>
        <time>2022-09-13T12:07:28.000Z</time>
      </trkpt>
      <trkpt lat="49.41639" lon="5.75779">
        <ele>355.79998779297</ele>
        <time>2022-09-13T12:07:29.000Z</time>
      </trkpt>
      <trkpt lat="49.41643" lon="5.75775">
        <ele>355.79998779297</ele>
        <time>2022-09-13T12:07:30.000Z</time>
      </trkpt>
      <trkpt lat="49.41645" lon="5.75772">
        <ele>355.79998779297</ele>
        <time>2022-09-13T12:07:31.000Z</time>
      </trkpt>
      <trkpt lat="49.41647" lon="5.7577">
        <ele>355.79998779297</ele>
        <time>2022-09-13T12:07:32.000Z</time>
      </trkpt>
      <trkpt lat="49.41651" lon="5.75766">
        <ele>355.79998779297</ele>
        <time>2022-09-13T12:07:33.000Z</time>
      </trkpt>
      <trkpt lat="49.41656" lon="5.75763">
        <ele>355.79998779297</ele>
        <time>2022-09-13T12:07:34.000Z</time>
      </trkpt>
      <trkpt lat="49.41659" lon="5.7576">
        <ele>355.79998779297</ele>
        <time>2022-09-13T12:07:35.000Z</time>
      </trkpt>
      <trkpt lat="49.41662" lon="5.75758">
        <ele>355.79998779297</ele>
        <time>2022-09-13T12:07:36.000Z</time>
      </trkpt>
      <trkpt lat="49.41665" lon="5.75755">
        <ele>355.79998779297</ele>
        <time>2022-09-13T12:07:37.000Z</time>
      </trkpt>
      <trkpt lat="49.41668" lon="5.75752">
        <ele>355.79998779297</ele>
        <time>2022-09-13T12:07:38.000Z</time>
      </trkpt>
      <trkpt lat="49.41671" lon="5.75749">
        <ele>356</ele>
        <time>2022-09-13T12:07:39.000Z</time>
      </trkpt>
      <trkpt lat="49.41674" lon="5.75746">
        <ele>356</ele>
        <time>2022-09-13T12:07:40.000Z</time>
      </trkpt>
      <trkpt lat="49.41677" lon="5.75744">
        <ele>356</ele>
        <time>2022-09-13T12:07:41.000Z</time>
      </trkpt>
      <trkpt lat="49.41681" lon="5.75741">
        <ele>356.20001220703</ele>
        <time>2022-09-13T12:07:42.000Z</time>
      </trkpt>
      <trkpt lat="49.41688" lon="5.75736">
        <ele>356.20001220703</ele>
        <time>2022-09-13T12:07:43.000Z</time>
      </trkpt>
      <trkpt lat="49.41692" lon="5.75732">
        <ele>356.39999389648</ele>
        <time>2022-09-13T12:07:44.000Z</time>
      </trkpt>
      <trkpt lat="49.41694" lon="5.75729">
        <ele>356.39999389648</ele>
        <time>2022-09-13T12:07:45.000Z</time>
      </trkpt>
      <trkpt lat="49.41695" lon="5.75727">
        <ele>356.79998779297</ele>
        <time>2022-09-13T12:07:46.000Z</time>
      </trkpt>
      <trkpt lat="49.41698" lon="5.75723">
        <ele>356.79998779297</ele>
        <time>2022-09-13T12:07:47.000Z</time>
      </trkpt>
      <trkpt lat="49.41701" lon="5.7572">
        <ele>356.79998779297</ele>
        <time>2022-09-13T12:07:48.000Z</time>
      </trkpt>
      <trkpt lat="49.41704" lon="5.75717">
        <ele>357</ele>
        <time>2022-09-13T12:07:49.000Z</time>
      </trkpt>
      <trkpt lat="49.41708" lon="5.75716">
        <ele>357.20001220703</ele>
        <time>2022-09-13T12:07:50.000Z</time>
      </trkpt>
      <trkpt lat="49.41711" lon="5.75713">
        <ele>357.20001220703</ele>
        <time>2022-09-13T12:07:51.000Z</time>
      </trkpt>
      <trkpt lat="49.41717" lon="5.75709">
        <ele>357.20001220703</ele>
        <time>2022-09-13T12:07:52.000Z</time>
      </trkpt>
      <trkpt lat="49.41721" lon="5.75705">
        <ele>357.39999389648</ele>
        <time>2022-09-13T12:07:53.000Z</time>
      </trkpt>
      <trkpt lat="49.41723" lon="5.75701">
        <ele>357.39999389648</ele>
        <time>2022-09-13T12:07:54.000Z</time>
      </trkpt>
      <trkpt lat="49.41724" lon="5.75698">
        <ele>357.60000610352</ele>
        <time>2022-09-13T12:07:55.000Z</time>
      </trkpt>
      <trkpt lat="49.41727" lon="5.75695">
        <ele>357.79998779297</ele>
        <time>2022-09-13T12:07:56.000Z</time>
      </trkpt>
      <trkpt lat="49.4173" lon="5.75691">
        <ele>357.79998779297</ele>
        <time>2022-09-13T12:07:57.000Z</time>
      </trkpt>
      <trkpt lat="49.41732" lon="5.75689">
        <ele>358</ele>
        <time>2022-09-13T12:07:58.000Z</time>
      </trkpt>
      <trkpt lat="49.41736" lon="5.75686">
        <ele>358</ele>
        <time>2022-09-13T12:07:59.000Z</time>
      </trkpt>
      <trkpt lat="49.41739" lon="5.75684">
        <ele>358.20001220703</ele>
        <time>2022-09-13T12:08:00.000Z</time>
      </trkpt>
      <trkpt lat="49.41743" lon="5.7568">
        <ele>358.39999389648</ele>
        <time>2022-09-13T12:08:01.000Z</time>
      </trkpt>
      <trkpt lat="49.41745" lon="5.75676">
        <ele>358.39999389648</ele>
        <time>2022-09-13T12:08:02.000Z</time>
      </trkpt>
      <trkpt lat="49.41746" lon="5.75674">
        <ele>358.60000610352</ele>
        <time>2022-09-13T12:08:03.000Z</time>
      </trkpt>
      <trkpt lat="49.41747" lon="5.75671">
        <ele>358.60000610352</ele>
        <time>2022-09-13T12:08:04.000Z</time>
      </trkpt>
      <trkpt lat="49.41749" lon="5.75669">
        <ele>358.60000610352</ele>
        <time>2022-09-13T12:08:05.000Z</time>
      </trkpt>
      <trkpt lat="49.41751" lon="5.75667">
        <ele>358.79998779297</ele>
        <time>2022-09-13T12:08:06.000Z</time>
      </trkpt>
      <trkpt lat="49.41754" lon="5.75664">
        <ele>358.79998779297</ele>
        <time>2022-09-13T12:08:07.000Z</time>
      </trkpt>
      <trkpt lat="49.41756" lon="5.75662">
        <ele>358.79998779297</ele>
        <time>2022-09-13T12:08:08.000Z</time>
      </trkpt>
      <trkpt lat="49.41759" lon="5.7566">
        <ele>358.79998779297</ele>
        <time>2022-09-13T12:08:09.000Z</time>
      </trkpt>
      <trkpt lat="49.41763" lon="5.75658">
        <ele>358.79998779297</ele>
        <time>2022-09-13T12:08:10.000Z</time>
      </trkpt>
      <trkpt lat="49.41767" lon="5.75656">
        <ele>358.79998779297</ele>
        <time>2022-09-13T12:08:11.000Z</time>
      </trkpt>
      <trkpt lat="49.4177" lon="5.75654">
        <ele>358.79998779297</ele>
        <time>2022-09-13T12:08:12.000Z</time>
      </trkpt>
      <trkpt lat="49.41772" lon="5.75652">
        <ele>359</ele>
        <time>2022-09-13T12:08:13.000Z</time>
      </trkpt>
      <trkpt lat="49.41775" lon="5.75649">
        <ele>359</ele>
        <time>2022-09-13T12:08:14.000Z</time>
      </trkpt>
      <trkpt lat="49.41783" lon="5.75643">
        <ele>359</ele>
        <time>2022-09-13T12:08:16.000Z</time>
      </trkpt>
      <trkpt lat="49.41793" lon="5.75632">
        <ele>358.79998779297</ele>
        <time>2022-09-13T12:08:19.000Z</time>
      </trkpt>
      <trkpt lat="49.41795" lon="5.75629">
        <ele>358.60000610352</ele>
        <time>2022-09-13T12:08:20.000Z</time>
      </trkpt>
      <trkpt lat="49.41798" lon="5.75627">
        <ele>358.60000610352</ele>
        <time>2022-09-13T12:08:21.000Z</time>
      </trkpt>
      <trkpt lat="49.41799" lon="5.75625">
        <ele>358.60000610352</ele>
        <time>2022-09-13T12:08:22.000Z</time>
      </trkpt>
      <trkpt lat="49.418" lon="5.75623">
        <ele>358.60000610352</ele>
        <time>2022-09-13T12:08:23.000Z</time>
      </trkpt>
      <trkpt lat="49.41801" lon="5.75621">
        <ele>358.39999389648</ele>
        <time>2022-09-13T12:08:25.000Z</time>
      </trkpt>
      <trkpt lat="49.41803" lon="5.75615">
        <ele>358.39999389648</ele>
        <time>2022-09-13T12:08:27.000Z</time>
      </trkpt>
      <trkpt lat="49.41803" lon="5.75612">
        <ele>358.39999389648</ele>
        <time>2022-09-13T12:08:28.000Z</time>
      </trkpt>
      <trkpt lat="49.41805" lon="5.75609">
        <ele>358.20001220703</ele>
        <time>2022-09-13T12:08:29.000Z</time>
      </trkpt>
      <trkpt lat="49.41807" lon="5.75606">
        <ele>358.20001220703</ele>
        <time>2022-09-13T12:08:30.000Z</time>
      </trkpt>
      <trkpt lat="49.41808" lon="5.75602">
        <ele>358.20001220703</ele>
        <time>2022-09-13T12:08:31.000Z</time>
      </trkpt>
      <trkpt lat="49.41808" lon="5.75599">
        <ele>358</ele>
        <time>2022-09-13T12:08:32.000Z</time>
      </trkpt>
      <trkpt lat="49.41814" lon="5.75593">
        <ele>358</ele>
        <time>2022-09-13T12:08:33.000Z</time>
      </trkpt>
      <trkpt lat="49.41815" lon="5.75585">
        <ele>358</ele>
        <time>2022-09-13T12:08:35.000Z</time>
      </trkpt>
      <trkpt lat="49.41816" lon="5.75581">
        <ele>358</ele>
        <time>2022-09-13T12:08:36.000Z</time>
      </trkpt>
      <trkpt lat="49.41816" lon="5.75579">
        <ele>357.79998779297</ele>
        <time>2022-09-13T12:08:37.000Z</time>
      </trkpt>
      <trkpt lat="49.41818" lon="5.75575">
        <ele>357.79998779297</ele>
        <time>2022-09-13T12:08:38.000Z</time>
      </trkpt>
      <trkpt lat="49.41818" lon="5.75568">
        <ele>356.79998779297</ele>
        <time>2022-09-13T12:09:27.000Z</time>
      </trkpt>
      <trkpt lat="49.41819" lon="5.7556">
        <ele>356.79998779297</ele>
        <time>2022-09-13T12:09:29.000Z</time>
      </trkpt>
      <trkpt lat="49.41818" lon="5.75549">
        <ele>356.79998779297</ele>
        <time>2022-09-13T12:09:32.000Z</time>
      </trkpt>
      <trkpt lat="49.41817" lon="5.75545">
        <ele>356.79998779297</ele>
        <time>2022-09-13T12:09:33.000Z</time>
      </trkpt>
      <trkpt lat="49.41816" lon="5.75538">
        <ele>357</ele>
        <time>2022-09-13T12:09:35.000Z</time>
      </trkpt>
      <trkpt lat="49.41809" lon="5.75523">
        <ele>357</ele>
        <time>2022-09-13T12:09:38.000Z</time>
      </trkpt>
      <trkpt lat="49.41807" lon="5.7552">
        <ele>357</ele>
        <time>2022-09-13T12:09:39.000Z</time>
      </trkpt>
      <trkpt lat="49.41803" lon="5.75514">
        <ele>357</ele>
        <time>2022-09-13T12:09:41.000Z</time>
      </trkpt>
      <trkpt lat="49.41801" lon="5.75511">
        <ele>357</ele>
        <time>2022-09-13T12:09:42.000Z</time>
      </trkpt>
      <trkpt lat="49.41799" lon="5.75505">
        <ele>357</ele>
        <time>2022-09-13T12:09:43.000Z</time>
      </trkpt>
      <trkpt lat="49.41791" lon="5.75482">
        <ele>357</ele>
        <time>2022-09-13T12:09:48.000Z</time>
      </trkpt>
      <trkpt lat="49.41791" lon="5.75476">
        <ele>357.20001220703</ele>
        <time>2022-09-13T12:09:49.000Z</time>
      </trkpt>
      <trkpt lat="49.41784" lon="5.75463">
        <ele>357.20001220703</ele>
        <time>2022-09-13T12:09:52.000Z</time>
      </trkpt>
      <trkpt lat="49.41782" lon="5.75458">
        <ele>357.20001220703</ele>
        <time>2022-09-13T12:09:53.000Z</time>
      </trkpt>
      <trkpt lat="49.4178" lon="5.75455">
        <ele>357.20001220703</ele>
        <time>2022-09-13T12:09:54.000Z</time>
      </trkpt>
      <trkpt lat="49.41777" lon="5.75451">
        <ele>357.20001220703</ele>
        <time>2022-09-13T12:09:55.000Z</time>
      </trkpt>
      <trkpt lat="49.41775" lon="5.75449">
        <ele>357.20001220703</ele>
        <time>2022-09-13T12:09:56.000Z</time>
      </trkpt>
      <trkpt lat="49.41774" lon="5.75447">
        <ele>357.20001220703</ele>
        <time>2022-09-13T12:09:57.000Z</time>
      </trkpt>
      <trkpt lat="49.41773" lon="5.75444">
        <ele>357.20001220703</ele>
        <time>2022-09-13T12:09:58.000Z</time>
      </trkpt>
      <trkpt lat="49.41769" lon="5.75437">
        <ele>357.20001220703</ele>
        <time>2022-09-13T12:10:00.000Z</time>
      </trkpt>
      <trkpt lat="49.41767" lon="5.75434">
        <ele>357</ele>
        <time>2022-09-13T12:10:01.000Z</time>
      </trkpt>
      <trkpt lat="49.41768" lon="5.75431">
        <ele>357</ele>
        <time>2022-09-13T12:10:02.000Z</time>
      </trkpt>
      <trkpt lat="49.41769" lon="5.75426">
        <ele>356.79998779297</ele>
        <time>2022-09-13T12:10:03.000Z</time>
      </trkpt>
      <trkpt lat="49.41768" lon="5.75423">
        <ele>356.79998779297</ele>
        <time>2022-09-13T12:10:04.000Z</time>
      </trkpt>
      <trkpt lat="49.41767" lon="5.7542">
        <ele>356.79998779297</ele>
        <time>2022-09-13T12:10:05.000Z</time>
      </trkpt>
      <trkpt lat="49.41766" lon="5.75415">
        <ele>356.79998779297</ele>
        <time>2022-09-13T12:10:06.000Z</time>
      </trkpt>
      <trkpt lat="49.41764" lon="5.7541">
        <ele>356.60000610352</ele>
        <time>2022-09-13T12:10:07.000Z</time>
      </trkpt>
      <trkpt lat="49.41756" lon="5.75394">
        <ele>356.60000610352</ele>
        <time>2022-09-13T12:10:11.000Z</time>
      </trkpt>
      <trkpt lat="49.41752" lon="5.7539">
        <ele>356.39999389648</ele>
        <time>2022-09-13T12:10:12.000Z</time>
      </trkpt>
      <trkpt lat="49.41749" lon="5.75385">
        <ele>356.39999389648</ele>
        <time>2022-09-13T12:10:13.000Z</time>
      </trkpt>
      <trkpt lat="49.41746" lon="5.75377">
        <ele>356.20001220703</ele>
        <time>2022-09-13T12:10:15.000Z</time>
      </trkpt>
      <trkpt lat="49.41745" lon="5.75374">
        <ele>356.20001220703</ele>
        <time>2022-09-13T12:10:16.000Z</time>
      </trkpt>
      <trkpt lat="49.41744" lon="5.7537">
        <ele>356</ele>
        <time>2022-09-13T12:10:17.000Z</time>
      </trkpt>
      <trkpt lat="49.41744" lon="5.75362">
        <ele>356</ele>
        <time>2022-09-13T12:10:18.000Z</time>
      </trkpt>
      <trkpt lat="49.41739" lon="5.75346">
        <ele>356</ele>
        <time>2022-09-13T12:10:21.000Z</time>
      </trkpt>
      <trkpt lat="49.41735" lon="5.75334">
        <ele>356</ele>
        <time>2022-09-13T12:10:23.000Z</time>
      </trkpt>
      <trkpt lat="49.41726" lon="5.75307">
        <ele>356</ele>
        <time>2022-09-13T12:10:28.000Z</time>
      </trkpt>
      <trkpt lat="49.41724" lon="5.75303">
        <ele>356</ele>
        <time>2022-09-13T12:10:29.000Z</time>
      </trkpt>
      <trkpt lat="49.4172" lon="5.75297">
        <ele>356</ele>
        <time>2022-09-13T12:10:30.000Z</time>
      </trkpt>
      <trkpt lat="49.41719" lon="5.75294">
        <ele>356</ele>
        <time>2022-09-13T12:10:31.000Z</time>
      </trkpt>
      <trkpt lat="49.41718" lon="5.75292">
        <ele>356</ele>
        <time>2022-09-13T12:10:32.000Z</time>
      </trkpt>
      <trkpt lat="49.41716" lon="5.75288">
        <ele>355.79998779297</ele>
        <time>2022-09-13T12:10:33.000Z</time>
      </trkpt>
      <trkpt lat="49.41713" lon="5.75283">
        <ele>355.60000610352</ele>
        <time>2022-09-13T12:10:34.000Z</time>
      </trkpt>
      <trkpt lat="49.41711" lon="5.75279">
        <ele>355.39999389648</ele>
        <time>2022-09-13T12:10:35.000Z</time>
      </trkpt>
      <trkpt lat="49.41708" lon="5.75277">
        <ele>355.20001220703</ele>
        <time>2022-09-13T12:10:36.000Z</time>
      </trkpt>
      <trkpt lat="49.41705" lon="5.75274">
        <ele>355</ele>
        <time>2022-09-13T12:10:37.000Z</time>
      </trkpt>
      <trkpt lat="49.41703" lon="5.75273">
        <ele>355</ele>
        <time>2022-09-13T12:10:38.000Z</time>
      </trkpt>
      <trkpt lat="49.41702" lon="5.75272">
        <ele>354.79998779297</ele>
        <time>2022-09-13T12:10:39.000Z</time>
      </trkpt>
      <trkpt lat="49.41701" lon="5.7527">
        <ele>354.79998779297</ele>
        <time>2022-09-13T12:10:40.000Z</time>
      </trkpt>
      <trkpt lat="49.41702" lon="5.75268">
        <ele>354.60000610352</ele>
        <time>2022-09-13T12:10:42.000Z</time>
      </trkpt>
      <trkpt lat="49.41715" lon="5.75256">
        <ele>354.20001220703</ele>
        <time>2022-09-13T12:10:48.000Z</time>
      </trkpt>
      <trkpt lat="49.41719" lon="5.75251">
        <ele>354</ele>
        <time>2022-09-13T12:10:50.000Z</time>
      </trkpt>
      <trkpt lat="49.41721" lon="5.75249">
        <ele>354</ele>
        <time>2022-09-13T12:10:51.000Z</time>
      </trkpt>
      <trkpt lat="49.4173" lon="5.7524">
        <ele>354.20001220703</ele>
        <time>2022-09-13T12:10:55.000Z</time>
      </trkpt>
      <trkpt lat="49.42234" lon="5.7477">
        <ele>323.9</ele>
      </trkpt>
      <trkpt lat="49.42225" lon="5.74726">
        <ele>323.1</ele>
      </trkpt>
      <trkpt lat="49.42236" lon="5.7477">
        <ele>323.8</ele>
      </trkpt>
      <trkpt lat="49.42091" lon="5.74895">
        <ele>325.8</ele>
      </trkpt>
      <trkpt lat="49.42015" lon="5.74971">
        <ele>326</ele>
      </trkpt>
      <trkpt lat="49.41943" lon="5.75036">
        <ele>329.3</ele>
      </trkpt>
      <trkpt lat="49.4194" lon="5.75047">
        <ele>329.9</ele>
      </trkpt>
      <trkpt lat="49.41747" lon="5.75223">
        <ele>354</ele>
        <time>2022-09-13T12:11:01.000Z</time>
      </trkpt>
      <trkpt lat="49.41748" lon="5.75222">
        <ele>353.79998779297</ele>
        <time>2022-09-13T12:11:02.000Z</time>
      </trkpt>
      <trkpt lat="49.41749" lon="5.75222">
        <ele>353.60000610352</ele>
        <time>2022-09-13T12:11:03.000Z</time>
      </trkpt>
      <trkpt lat="49.4175" lon="5.75223">
        <ele>353.39999389648</ele>
        <time>2022-09-13T12:11:05.000Z</time>
      </trkpt>
      <trkpt lat="49.41751" lon="5.75225">
        <ele>353.39999389648</ele>
        <time>2022-09-13T12:11:06.000Z</time>
      </trkpt>
    </trkseg>
  </trk>
</gpx>